Observation data for Throckmorton on 11/14/2019      Previous  Date  Next       Current Mesonet Observations  Soil Data  Daily Summary Page  Observations in Plain Language
KTH1 140600Z 15000KT 01/M03 A3009 RMK A01 T00141027  RH  074%=      5-min Rain = 0
KTH1 140601Z 14001KT 01/M03 A3009 RMK A01 T00141027  RH  074%=      5-min Rain = 0
KTH1 140602Z 15001KT 01/M03 A3009 RMK A01 T00141026  RH  074%=      5-min Rain = 0
KTH1 140603Z 13001KT 02/M03 A3009 RMK A01 T00151026  RH  074%=      5-min Rain = 0
KTH1 140604Z 13002KT 02/M03 A3009 RMK A01 T00151026  RH  074%=      5-min Rain = 0
KTH1 140605Z 12002KT 02/M03 A3009 RMK A01 T00151025  RH  074%=      5-min Rain = 0
KTH1 140606Z 12002KT 02/M03 A3009 RMK A01 T00151025  RH  074%=      5-min Rain = 0
KTH1 140607Z 12002KT 02/M03 A3009 RMK A01 T00151026  RH  074%=      5-min Rain = 0
KTH1 140608Z 13001KT 02/M03 A3009 RMK A01 T00161025  RH  074%=      5-min Rain = 0
KTH1 140609Z 14002KT 02/M03 A3009 RMK A01 T00161026  RH  074%=      5-min Rain = 0
KTH1 140610Z 14002KT 02/M03 A3009 RMK A01 T00161026  RH  074%=      5-min Rain = 0
KTH1 140611Z 14002KT 02/M03 A3009 RMK A01 T00151026  RH  074%=      5-min Rain = 0
KTH1 140612Z 14002KT 02/M03 A3009 RMK A01 T00151026  RH  074%=      5-min Rain = 0
KTH1 140613Z 14002KT 02/M03 A3009 RMK A01 T00151026  RH  074%=      5-min Rain = 0
KTH1 140614Z 14002KT 01/M03 A3009 RMK A01 T00141026  RH  075%=      5-min Rain = 0
KTH1 140615Z 14002KT 01/M03 A3009 RMK A01 T00141026  RH  075%=      5-min Rain = 0
KTH1 140616Z 14002KT 01/M03 A3009 RMK A01 T00141026  RH  075%=      5-min Rain = 0
KTH1 140617Z 14002KT 01/M03 A301 RMK A01 T00141026  RH  075%=      5-min Rain = 0
KTH1 140618Z 14002KT 01/M03 A301 RMK A01 T00141026  RH  075%=      5-min Rain = 0
KTH1 140619Z 14002KT 01/M03 A301 RMK A01 T00141026  RH  074%=      5-min Rain = 0
KTH1 140620Z 13002KT 01/M03 A301 RMK A01 T00141026  RH  075%=      5-min Rain = 0
KTH1 140621Z 14002KT 01/M03 A301 RMK A01 T00141026  RH  075%=      5-min Rain = 0
KTH1 140622Z 14002KT 01/M03 A301 RMK A01 T00141026  RH  075%=      5-min Rain = 0
KTH1 140623Z 14002KT 01/M03 A301 RMK A01 T00141026  RH  075%=      5-min Rain = 0
KTH1 140624Z 15002KT 01/M03 A301 RMK A01 T00141026  RH  075%=      5-min Rain = 0
KTH1 140625Z 16002KT 01/M03 A301 RMK A01 T00141026  RH  075%=      5-min Rain = 0
KTH1 140626Z 16002KT 01/M03 A301 RMK A01 T00131026  RH  075%=      5-min Rain = 0
KTH1 140627Z 16002KT 01/M03 A301 RMK A01 T00131026  RH  075%=      5-min Rain = 0
KTH1 140628Z 16002KT 01/M03 A301 RMK A01 T00131026  RH  075%=      5-min Rain = 0
KTH1 140629Z 16002KT 01/M03 A301 RMK A01 T00131026  RH  075%=      5-min Rain = 0
KTH1 140630Z 15002KT 01/M03 A301 RMK A01 T00131026  RH  075%=      5-min Rain = 0
KTH1 140631Z 15002KT 01/M03 A301 RMK A01 T00131026  RH  075%=      5-min Rain = 0
KTH1 140632Z 15002KT 01/M03 A301 RMK A01 T00131025  RH  075%=      5-min Rain = 0
KTH1 140633Z 15002KT 01/M03 A301 RMK A01 T00131026  RH  075%=      5-min Rain = 0
KTH1 140634Z 15002KT 01/M03 A301 RMK A01 T00131026  RH  075%=      5-min Rain = 0
KTH1 140635Z 15002KT 01/M03 A301 RMK A01 T00131026  RH  075%=      5-min Rain = 0
KTH1 140636Z 15002KT 01/M03 A301 RMK A01 T00131026  RH  075%=      5-min Rain = 0
KTH1 140637Z 15002KT 01/M03 A301 RMK A01 T00131026  RH  075%=      5-min Rain = 0
KTH1 140638Z 15002KT 01/M03 A301 RMK A01 T00131025  RH  076%=      5-min Rain = 0
KTH1 140639Z 15002KT 01/M03 A301 RMK A01 T00131025  RH  076%=      5-min Rain = 0
KTH1 140640Z 15003KT 01/M03 A301 RMK A01 T00131025  RH  076%=      5-min Rain = 0
KTH1 140641Z 15003KT 01/M03 A301 RMK A01 T00121025  RH  076%=      5-min Rain = 0
KTH1 140642Z 15003KT 01/M03 A301 RMK A01 T00121025  RH  076%=      5-min Rain = 0
KTH1 140643Z 15003KT 01/M03 A301 RMK A01 T00121025  RH  076%=      5-min Rain = 0
KTH1 140644Z 14003KT 01/M03 A301 RMK A01 T00121025  RH  076%=      5-min Rain = 0
KTH1 140645Z 13002KT 01/M03 A301 RMK A01 T00121025  RH  076%=      5-min Rain = 0
KTH1 140646Z 13002KT 01/M03 A301 RMK A01 T00121025  RH  076%=      5-min Rain = 0
KTH1 140647Z 13002KT 01/M03 A301 RMK A01 T00121025  RH  076%=      5-min Rain = 0
KTH1 140648Z 14002KT 01/M03 A301 RMK A01 T00121026  RH  076%=      5-min Rain = 0
KTH1 140649Z 13002KT 01/M03 A301 RMK A01 T00111025  RH  076%=      5-min Rain = 0
KTH1 140650Z 12001KT 01/M03 A301 RMK A01 T00111026  RH  077%=      5-min Rain = 0
KTH1 140651Z 12001KT 01/M03 A301 RMK A01 T00111026  RH  077%=      5-min Rain = 0
KTH1 140652Z 11001KT 01/M03 A3011 RMK A01 T00111026  RH  077%=      5-min Rain = 0
KTH1 140653Z 12001KT 01/M03 A3011 RMK A01 T00101026  RH  077%=      5-min Rain = 0
KTH1 140654Z 13001KT 01/M03 A3011 RMK A01 T00091027  RH  077%=      5-min Rain = 0
KTH1 140655Z 12001KT 01/M03 A3011 RMK A01 T00091027  RH  077%=      5-min Rain = 0
KTH1 140656Z 12002KT 01/M03 A3011 RMK A01 T00081028  RH  077%=      5-min Rain = 0
KTH1 140657Z 12003KT 01/M03 A3011 RMK A01 T00081027  RH  077%=      5-min Rain = 0
KTH1 140658Z 11002KT 01/M03 A3011 RMK A01 T00081026  RH  078%=      5-min Rain = 0
KTH1 140659Z 09002KT 01/M03 A3011 RMK A01 T00081026  RH  078%=      5-min Rain = 0
KTH1 140700Z 08002KT 01/M03 A3011 RMK A01 T00071026  RH  078%=      5-min Rain = 0
KTH1 140701Z 10002KT 01/M03 A3011 RMK A01 T00071026  RH  078%=      5-min Rain = 0
KTH1 140702Z 11002KT 01/M03 A3011 RMK A01 T00071026  RH  078%=      5-min Rain = 0
KTH1 140703Z 11002KT 01/M03 A3011 RMK A01 T00071026  RH  079%=      5-min Rain = 0
KTH1 140704Z 11002KT 01/M03 A3011 RMK A01 T00071026  RH  079%=      5-min Rain = 0
KTH1 140705Z 10002KT 01/M03 A3011 RMK A01 T00071026  RH  079%=      5-min Rain = 0
KTH1 140706Z 11002KT 01/M03 A3011 RMK A01 T00071026  RH  079%=      5-min Rain = 0
KTH1 140707Z 11002KT 01/M03 A3011 RMK A01 T00071026  RH  079%=      5-min Rain = 0
KTH1 140708Z 12002KT 01/M03 A3011 RMK A01 T00081026  RH  078%=      5-min Rain = 0
KTH1 140709Z 11002KT 01/M03 A3011 RMK A01 T00081026  RH  078%=      5-min Rain = 0
KTH1 140710Z 10002KT 01/M03 A3011 RMK A01 T00081026  RH  078%=      5-min Rain = 0
KTH1 140711Z 09002KT 01/M03 A3011 RMK A01 T00071026  RH  079%=      5-min Rain = 0
KTH1 140712Z 10002KT 01/M03 A3011 RMK A01 T00061026  RH  079%=      5-min Rain = 0
KTH1 140713Z 11001KT 01/M03 A3011 RMK A01 T00061026  RH  079%=      5-min Rain = 0
KTH1 140714Z 10001KT 01/M03 A3011 RMK A01 T00061025  RH  080%=      5-min Rain = 0
KTH1 140715Z 08001KT 01/M03 A3011 RMK A01 T00061025  RH  080%=      5-min Rain = 0
KTH1 140716Z 08001KT 01/M03 A3011 RMK A01 T00051025  RH  080%=      5-min Rain = 0
KTH1 140717Z 08001KT 01/M03 A3011 RMK A01 T00061025  RH  080%=      5-min Rain = 0
KTH1 140718Z 08001KT 01/M03 A3011 RMK A01 T00051026  RH  080%=      5-min Rain = 0
KTH1 140719Z 08001KT 01/M03 A3012 RMK A01 T00051026  RH  080%=      5-min Rain = 0
KTH1 140720Z 08001KT 00/M03 A3012 RMK A01 T00041027  RH  080%=      5-min Rain = 0
KTH1 140721Z 08001KT 00/M03 A3012 RMK A01 T00041027  RH  080%=      5-min Rain = 0
KTH1 140722Z 08001KT 00/M03 A3012 RMK A01 T00041027  RH  080%=      5-min Rain = 0
KTH1 140723Z 08001KT 00/M03 A3012 RMK A01 T00041027  RH  080%=      5-min Rain = 0
KTH1 140724Z 08001KT 00/M03 A3012 RMK A01 T00031027  RH  080%=      5-min Rain = 0
KTH1 140725Z 08001KT 00/M03 A3012 RMK A01 T00031027  RH  080%=      5-min Rain = 0
KTH1 140726Z 08001KT 00/M03 A3012 RMK A01 T00031027  RH  080%=      5-min Rain = 0
KTH1 140727Z 08000KT 00/M03 A3012 RMK A01 T00021027  RH  080%=      5-min Rain = 0
KTH1 140728Z 08000KT 00/M03 A3012 RMK A01 T00021027  RH  080%=      5-min Rain = 0
KTH1 140729Z 08001KT 00/M03 A3012 RMK A01 T00021028  RH  081%=      5-min Rain = 0
KTH1 140730Z 08001KT 00/M03 A3012 RMK A01 T00021028  RH  081%=      5-min Rain = 0
KTH1 140731Z 08001KT 00/M03 A3012 RMK A01 T00021027  RH  081%=      5-min Rain = 0
KTH1 140732Z 08001KT 00/M03 A3012 RMK A01 T00021027  RH  081%=      5-min Rain = 0
KTH1 140733Z 08001KT 00/M03 A3012 RMK A01 T00021027  RH  081%=      5-min Rain = 0
KTH1 140734Z 08001KT 00/M03 A3012 RMK A01 T00021027  RH  081%=      5-min Rain = 0
KTH1 140735Z 08001KT 00/M03 A3012 RMK A01 T00021027  RH  081%=      5-min Rain = 0
KTH1 140736Z 08001KT 00/M03 A3012 RMK A01 T00021027  RH  081%=      5-min Rain = 0
KTH1 140737Z 08002KT 00/M03 A3012 RMK A01 T00021026  RH  081%=      5-min Rain = 0
KTH1 140738Z 07002KT 00/M03 A3012 RMK A01 T00031026  RH  081%=      5-min Rain = 0
KTH1 140739Z 06002KT 00/M03 A3013 RMK A01 T00031026  RH  081%=      5-min Rain = 0
KTH1 140740Z 06002KT 00/M03 A3013 RMK A01 T00031027  RH  081%=      5-min Rain = 0
KTH1 140741Z 06002KT 00/M03 A3013 RMK A01 T00031027  RH  081%=      5-min Rain = 0
KTH1 140742Z 06002KT 00/M03 A3013 RMK A01 T00031027  RH  081%=      5-min Rain = 0
KTH1 140743Z 06002KT 00/M03 A3013 RMK A01 T00031026  RH  081%=      5-min Rain = 0
KTH1 140744Z 06002KT 00/M03 A3013 RMK A01 T00031026  RH  081%=      5-min Rain = 0
KTH1 140745Z 05002KT 00/M03 A3013 RMK A01 T00031026  RH  081%=      5-min Rain = 0
KTH1 140746Z 04002KT 00/M03 A3013 RMK A01 T00031026  RH  081%=      5-min Rain = 0
KTH1 140747Z 03002KT 00/M03 A3013 RMK A01 T00031026  RH  081%=      5-min Rain = 0
KTH1 140748Z 02002KT 00/M03 A3013 RMK A01 T00031026  RH  081%=      5-min Rain = 0
KTH1 140749Z 02002KT 00/M03 A3013 RMK A01 T00031026  RH  081%=      5-min Rain = 0
KTH1 140750Z 02002KT 00/M03 A3013 RMK A01 T00031026  RH  081%=      5-min Rain = 0
KTH1 140751Z 02002KT 00/M03 A3013 RMK A01 T00031026  RH  081%=      5-min Rain = 0
KTH1 140752Z 02001KT 00/M03 A3013 RMK A01 T00031026  RH  081%=      5-min Rain = 0
KTH1 140753Z 02001KT 00/M03 A3013 RMK A01 T00021026  RH  081%=      5-min Rain = 0
KTH1 140754Z 02001KT 00/M03 A3013 RMK A01 T00021027  RH  081%=      5-min Rain = 0
KTH1 140755Z 02001KT 00/M03 A3013 RMK A01 T00011027  RH  081%=      5-min Rain = 0
KTH1 140756Z 02002KT 00/M03 A3013 RMK A01 T00011027  RH  081%=      5-min Rain = 0
KTH1 140757Z 01001KT 00/03 A3013 RMK A01 T00000-28  RH  082%=      5-min Rain = 0
KTH1 140758Z 35001KT 00/03 A3013 RMK A01 T00000-27  RH  082%=      5-min Rain = 0
KTH1 140759Z 35001KT 00/03 A3013 RMK A01 T00-00-27  RH  082%=      5-min Rain = 0
KTH1 140800Z 35002KT 00/03 A3013 RMK A01 T00-00-27  RH  082%=      5-min Rain = 0
KTH1 140801Z 34002KT M00/M03 A3013 RMK A01 T10011027  RH  082%=      5-min Rain = 0
KTH1 140802Z 35002KT M00/M03 A3013 RMK A01 T10011027  RH  082%=      5-min Rain = 0
KTH1 140803Z 35002KT M00/M03 A3013 RMK A01 T10021028  RH  083%=      5-min Rain = 0
KTH1 140804Z 35001KT M00/M03 A3013 RMK A01 T10021028  RH  083%=      5-min Rain = 0
KTH1 140805Z 35001KT M00/M03 A3013 RMK A01 T10021028  RH  083%=      5-min Rain = 0
KTH1 140806Z 35001KT M00/M03 A3013 RMK A01 T10031028  RH  083%=      5-min Rain = 0
KTH1 140807Z 35002KT M00/M03 A3013 RMK A01 T10031027  RH  083%=      5-min Rain = 0
KTH1 140808Z 35002KT M00/M03 A3013 RMK A01 T10021027  RH  083%=      5-min Rain = 0
KTH1 140809Z 35002KT M00/M03 A3013 RMK A01 T10021027  RH  083%=      5-min Rain = 0
KTH1 140810Z 35002KT M00/M03 A3013 RMK A01 T10021027  RH  083%=      5-min Rain = 0
KTH1 140811Z 35002KT M00/M03 A3013 RMK A01 T10031028  RH  083%=      5-min Rain = 0
KTH1 140812Z 34002KT M00/M03 A3013 RMK A01 T10031029  RH  083%=      5-min Rain = 0
KTH1 140813Z 34001KT M00/M03 A3013 RMK A01 T10041028  RH  083%=      5-min Rain = 0
KTH1 140814Z 34001KT M00/M03 A3013 RMK A01 T10031028  RH  084%=      5-min Rain = 0
KTH1 140815Z 34001KT M00/M03 A3013 RMK A01 T10041027  RH  084%=      5-min Rain = 0
KTH1 140816Z 34001KT M00/M03 A3013 RMK A01 T10031027  RH  084%=      5-min Rain = 0
KTH1 140817Z 34001KT M00/M03 A3014 RMK A01 T10031026  RH  084%=      5-min Rain = 0
KTH1 140818Z 35002KT M00/M03 A3014 RMK A01 T10021026  RH  084%=      5-min Rain = 0
KTH1 140819Z 35002KT M00/M03 A3014 RMK A01 T10021026  RH  084%=      5-min Rain = 0
KTH1 140820Z 34001KT M00/M03 A3014 RMK A01 T10011026  RH  083%=      5-min Rain = 0
KTH1 140821Z 32001KT M00/M03 A3014 RMK A01 T10011026  RH  084%=      5-min Rain = 0
KTH1 140822Z 31001KT M00/M02 A3014 RMK A01 T10011024  RH  084%=      5-min Rain = 0
KTH1 140823Z 31001KT 00/02 A3014 RMK A01 T00-00-22  RH  085%=      5-min Rain = 0
KTH1 140824Z 30001KT 00/M02 A3014 RMK A01 T00011020  RH  086%=      5-min Rain = 0
KTH1 140825Z 29001KT 00/M02 A3014 RMK A01 T00021018  RH  087%=      5-min Rain = 0
KTH1 140826Z 29001KT 00/M02 A3014 RMK A01 T00021017  RH  087%=      5-min Rain = 0
KTH1 140827Z 29000KT 00/M02 A3014 RMK A01 T00021016  RH  088%=      5-min Rain = 0
KTH1 140828Z 00000KT 00/M02 A3014 RMK A01 T00021016  RH  088%=      5-min Rain = 0
KTH1 140829Z 32000KT 00/M02 A3014 RMK A01 T00021016  RH  088%=      5-min Rain = 0
KTH1 140830Z 32000KT 00/M02 A3014 RMK A01 T00021016  RH  088%=      5-min Rain = 0
KTH1 140831Z 32001KT 00/M02 A3014 RMK A01 T00021016  RH  087%=      5-min Rain = 0
KTH1 140832Z 32001KT 00/M02 A3014 RMK A01 T00021016  RH  087%=      5-min Rain = 0
KTH1 140833Z 32001KT 00/M02 A3014 RMK A01 T00021018  RH  087%=      5-min Rain = 0
KTH1 140834Z 31001KT 00/M02 A3014 RMK A01 T00011020  RH  085%=      5-min Rain = 0
KTH1 140835Z 30001KT 00/M02 A3014 RMK A01 T00011023  RH  084%=      5-min Rain = 0
KTH1 140836Z 30002KT 00/02 A3014 RMK A01 T00-00-24  RH  084%=      5-min Rain = 0
KTH1 140837Z 32002KT 00/02 A3014 RMK A01 T00-00-23  RH  085%=      5-min Rain = 0
KTH1 140838Z 34002KT 00/02 A3014 RMK A01 T00-00-23  RH  085%=      5-min Rain = 0
KTH1 140839Z 34002KT M00/M03 A3014 RMK A01 T10011026  RH  084%=      5-min Rain = 0
KTH1 140840Z 34002KT M00/M03 A3014 RMK A01 T10031028  RH  083%=      5-min Rain = 0
KTH1 140841Z 34003KT M00/M03 A3014 RMK A01 T10041029  RH  083%=      5-min Rain = 0
KTH1 140842Z 34003KT M00/M03 A3014 RMK A01 T10041029  RH  084%=      5-min Rain = 0
KTH1 140843Z 35003KT M01/M03 A3014 RMK A01 T10051028  RH  084%=      5-min Rain = 0
KTH1 140844Z 35003KT M01/M03 A3014 RMK A01 T10051029  RH  084%=      5-min Rain = 0
KTH1 140845Z 35003KT M01/M03 A3014 RMK A01 T10061030  RH  084%=      5-min Rain = 0
KTH1 140846Z 35003KT M01/M03 A3014 RMK A01 T10071030  RH  085%=      5-min Rain = 0
KTH1 140847Z 35002KT M01/M03 A3014 RMK A01 T10081030  RH  085%=      5-min Rain = 0
KTH1 140848Z 35002KT M01/M03 A3014 RMK A01 T10081030  RH  085%=      5-min Rain = 0
KTH1 140849Z 35002KT M01/M03 A3014 RMK A01 T10091030  RH  085%=      5-min Rain = 0
KTH1 140850Z 35002KT M01/M03 A3014 RMK A01 T10081029  RH  086%=      5-min Rain = 0
KTH1 140851Z 35002KT M01/M03 A3014 RMK A01 T10091030  RH  086%=      5-min Rain = 0
KTH1 140852Z 35002KT M01/M03 A3014 RMK A01 T10091029  RH  086%=      5-min Rain = 0
KTH1 140853Z 35002KT M01/M03 A3014 RMK A01 T10091029  RH  086%=      5-min Rain = 0
KTH1 140854Z 35002KT M01/M03 A3014 RMK A01 T10091029  RH  086%=      5-min Rain = 0
KTH1 140855Z 35002KT M01/M03 A3014 RMK A01 T10091030  RH  086%=      5-min Rain = 0
KTH1 140856Z 35002KT M01/M03 A3014 RMK A01 T10091029  RH  086%=      5-min Rain = 0
KTH1 140857Z 00002KT M01/M03 A3014 RMK A01 T10101029  RH  087%=      5-min Rain = 0
KTH1 140858Z 01003KT M01/M03 A3014 RMK A01 T10091029  RH  087%=      5-min Rain = 0
KTH1 140859Z 01003KT M01/M03 A3014 RMK A01 T10081028  RH  086%=      5-min Rain = 0
KTH1 140900Z 01002KT M01/M03 A3014 RMK A01 T10081029  RH  086%=      5-min Rain = 0
KTH1 140901Z 01002KT M01/M03 A3014 RMK A01 T10081029  RH  085%=      5-min Rain = 0
KTH1 140902Z 01003KT M01/M03 A3014 RMK A01 T10081030  RH  085%=      5-min Rain = 0
KTH1 140903Z 01003KT M01/M03 A3014 RMK A01 T10081030  RH  085%=      5-min Rain = 0
KTH1 140904Z 00003KT M01/M03 A3015 RMK A01 T10081030  RH  085%=      5-min Rain = 0
KTH1 140905Z 36004KT M01/M03 A3015 RMK A01 T10081029  RH  085%=      5-min Rain = 0
KTH1 140906Z 00004KT M01/M03 A3015 RMK A01 T10071029  RH  085%=      5-min Rain = 0
KTH1 140907Z 00004KT M01/M03 A3015 RMK A01 T10071030  RH  085%=      5-min Rain = 0
KTH1 140908Z 35004KT M01/M03 A3015 RMK A01 T10071030  RH  085%=      5-min Rain = 0
KTH1 140909Z 35004KT M01/M03 A3015 RMK A01 T10071030  RH  085%=      5-min Rain = 0
KTH1 140910Z 35004KT M01/M03 A3015 RMK A01 T10071030  RH  085%=      5-min Rain = 0
KTH1 140911Z 35004KT M01/M03 A3015 RMK A01 T10071030  RH  085%=      5-min Rain = 0
KTH1 140912Z 36004KT M01/M03 A3015 RMK A01 T10081031  RH  085%=      5-min Rain = 0
KTH1 140913Z 35004KT M01/M03 A3015 RMK A01 T10091031  RH  085%=      5-min Rain = 0
KTH1 140914Z 35003KT M01/M03 A3015 RMK A01 T10091031  RH  085%=      5-min Rain = 0
KTH1 140915Z 34003KT M01/M03 A3015 RMK A01 T10091031  RH  085%=      5-min Rain = 0
KTH1 140916Z 35003KT M01/M03 A3015 RMK A01 T10101031  RH  086%=      5-min Rain = 0
KTH1 140917Z 35003KT M01/M03 A3015 RMK A01 T10111031  RH  086%=      5-min Rain = 0
KTH1 140918Z 35003KT M01/M03 A3015 RMK A01 T10111031  RH  086%=      5-min Rain = 0
KTH1 140919Z 34002KT M01/M03 A3015 RMK A01 T10111031  RH  086%=      5-min Rain = 0
KTH1 140920Z 34002KT M01/M03 A3015 RMK A01 T10111031  RH  086%=      5-min Rain = 0
KTH1 140921Z 34002KT M01/M03 A3015 RMK A01 T10111031  RH  087%=      5-min Rain = 0
KTH1 140922Z 34002KT M01/M03 A3015 RMK A01 T10111031  RH  087%=      5-min Rain = 0
KTH1 140923Z 34002KT M01/M03 A3015 RMK A01 T10121031  RH  087%=      5-min Rain = 0
KTH1 140924Z 35002KT M01/M03 A3015 RMK A01 T10121031  RH  087%=      5-min Rain = 0
KTH1 140925Z 35002KT M01/M03 A3015 RMK A01 T10121031  RH  087%=      5-min Rain = 0
KTH1 140926Z 36002KT M01/M03 A3015 RMK A01 T10121031  RH  087%=      5-min Rain = 0
KTH1 140927Z 36002KT M01/M03 A3015 RMK A01 T10121031  RH  087%=      5-min Rain = 0
KTH1 140928Z 34002KT M01/M03 A3015 RMK A01 T10121031  RH  087%=      5-min Rain = 0
KTH1 140929Z 34002KT M01/M03 A3016 RMK A01 T10121031  RH  087%=      5-min Rain = 0
KTH1 140930Z 34002KT M01/M03 A3016 RMK A01 T10121031  RH  087%=      5-min Rain = 0
KTH1 140931Z 34002KT M01/M03 A3016 RMK A01 T10121030  RH  087%=      5-min Rain = 0
KTH1 140932Z 34002KT M01/M03 A3016 RMK A01 T10121030  RH  087%=      5-min Rain = 0
KTH1 140933Z 33002KT M01/M03 A3016 RMK A01 T10111030  RH  087%=      5-min Rain = 0
KTH1 140934Z 33002KT M01/M03 A3016 RMK A01 T10111029  RH  087%=      5-min Rain = 0
KTH1 140935Z 32002KT M01/M03 A3016 RMK A01 T10101029  RH  087%=      5-min Rain = 0
KTH1 140936Z 31002KT M01/M03 A3016 RMK A01 T10101028  RH  088%=      5-min Rain = 0
KTH1 140937Z 30002KT M01/M03 A3016 RMK A01 T10101027  RH  088%=      5-min Rain = 0
KTH1 140938Z 28001KT M01/M03 A3016 RMK A01 T10091025  RH  089%=      5-min Rain = 0
KTH1 140939Z 28001KT M01/M02 A3016 RMK A01 T10081024  RH  089%=      5-min Rain = 0
KTH1 140940Z 29000KT M01/M02 A3016 RMK A01 T10081024  RH  089%=      5-min Rain = 0
KTH1 140941Z 29000KT M01/M02 A3016 RMK A01 T10071023  RH  089%=      5-min Rain = 0
KTH1 140942Z 29000KT M01/M02 A3016 RMK A01 T10071023  RH  089%=      5-min Rain = 0
KTH1 140943Z 29000KT M01/M02 A3016 RMK A01 T10071023  RH  089%=      5-min Rain = 0
KTH1 140944Z 00000KT M01/M02 A3016 RMK A01 T10081023  RH  089%=      5-min Rain = 0
KTH1 140945Z 29000KT M01/M02 A3016 RMK A01 T10081023  RH  089%=      5-min Rain = 0
KTH1 140946Z 00000KT M01/M02 A3016 RMK A01 T10081023  RH  089%=      5-min Rain = 0
KTH1 140947Z 29000KT M01/M02 A3016 RMK A01 T10081023  RH  090%=      5-min Rain = 0
KTH1 140948Z 29001KT M01/M02 A3016 RMK A01 T10081023  RH  090%=      5-min Rain = 0
KTH1 140949Z 30001KT M01/M02 A3016 RMK A01 T10091024  RH  090%=      5-min Rain = 0
KTH1 140950Z 31001KT M01/M02 A3016 RMK A01 T10091024  RH  090%=      5-min Rain = 0
KTH1 140951Z 31001KT M01/M02 A3016 RMK A01 T10091023  RH  090%=      5-min Rain = 0
KTH1 140952Z 31001KT M01/M02 A3016 RMK A01 T10091024  RH  090%=      5-min Rain = 0
KTH1 140953Z 31001KT M01/M03 A3016 RMK A01 T10091025  RH  089%=      5-min Rain = 0
KTH1 140954Z 32002KT M01/M03 A3016 RMK A01 T10091027  RH  088%=      5-min Rain = 0
KTH1 140955Z 32002KT M01/M03 A3016 RMK A01 T10101029  RH  087%=      5-min Rain = 0
KTH1 140956Z 33002KT M01/M03 A3016 RMK A01 T10101029  RH  087%=      5-min Rain = 0
KTH1 140957Z 33002KT M01/M03 A3016 RMK A01 T10111030  RH  087%=      5-min Rain = 0
KTH1 140958Z 32002KT M01/M03 A3016 RMK A01 T10111030  RH  087%=      5-min Rain = 0
KTH1 140959Z 32003KT M01/M03 A3016 RMK A01 T10111030  RH  087%=      5-min Rain = 0
KTH1 141000Z 33003KT M01/M03 A3016 RMK A01 T10121030  RH  087%=      5-min Rain = 0
KTH1 141001Z 33003KT M01/M03 A3016 RMK A01 T10121029  RH  088%=      5-min Rain = 0
KTH1 141002Z 33003KT M01/M03 A3016 RMK A01 T10121030  RH  088%=      5-min Rain = 0
KTH1 141003Z 34003KT M01/M03 A3016 RMK A01 T10121030  RH  088%=      5-min Rain = 0
KTH1 141004Z 34002KT M01/M03 A3016 RMK A01 T10131030  RH  088%=      5-min Rain = 0
KTH1 141005Z 34003KT M01/M03 A3016 RMK A01 T10131031  RH  088%=      5-min Rain = 0
KTH1 141006Z 34002KT M01/M03 A3017 RMK A01 T10131031  RH  088%=      5-min Rain = 0
KTH1 141007Z 34002KT M01/M03 A3017 RMK A01 T10131031  RH  088%=      5-min Rain = 0
KTH1 141008Z 34002KT M01/M03 A3017 RMK A01 T10141031  RH  088%=      5-min Rain = 0
KTH1 141009Z 34002KT M01/M03 A3017 RMK A01 T10141031  RH  088%=      5-min Rain = 0
KTH1 141010Z 34002KT M01/M03 A3017 RMK A01 T10141031  RH  088%=      5-min Rain = 0
KTH1 141011Z 33002KT M01/M03 A3017 RMK A01 T10141030  RH  088%=      5-min Rain = 0
KTH1 141012Z 33003KT M01/M03 A3017 RMK A01 T10141031  RH  088%=      5-min Rain = 0
KTH1 141013Z 33002KT M01/M03 A3017 RMK A01 T10141031  RH  088%=      5-min Rain = 0
KTH1 141014Z 34002KT M01/M03 A3017 RMK A01 T10141030  RH  088%=      5-min Rain = 0
KTH1 141015Z 34002KT M01/M03 A3017 RMK A01 T10141030  RH  088%=      5-min Rain = 0
KTH1 141016Z 35002KT M01/M03 A3017 RMK A01 T10141030  RH  088%=      5-min Rain = 0
KTH1 141017Z 35003KT M01/M03 A3017 RMK A01 T10141031  RH  088%=      5-min Rain = 0
KTH1 141018Z 35003KT M01/M03 A3017 RMK A01 T10141031  RH  088%=      5-min Rain = 0
KTH1 141019Z 35003KT M01/M03 A3017 RMK A01 T10141031  RH  088%=      5-min Rain = 0
KTH1 141020Z 35003KT M01/M03 A3017 RMK A01 T10131031  RH  088%=      5-min Rain = 0
KTH1 141021Z 35003KT M01/M03 A3017 RMK A01 T10141031  RH  088%=      5-min Rain = 0
KTH1 141022Z 35003KT M01/M03 A3017 RMK A01 T10141032  RH  088%=      5-min Rain = 0
KTH1 141023Z 35003KT M01/M03 A3017 RMK A01 T10141032  RH  088%=      5-min Rain = 0
KTH1 141024Z 34003KT M01/M03 A3017 RMK A01 T10141032  RH  088%=      5-min Rain = 0
KTH1 141025Z 34002KT M02/M03 A3017 RMK A01 T10151032  RH  088%=      5-min Rain = 0
KTH1 141026Z 34002KT M02/M03 A3018 RMK A01 T10151032  RH  088%=      5-min Rain = 0
KTH1 141027Z 34003KT M02/M03 A3018 RMK A01 T10151032  RH  088%=      5-min Rain = 0
KTH1 141028Z 34002KT M02/M03 A3018 RMK A01 T10151031  RH  088%=      5-min Rain = 0
KTH1 141029Z 33002KT M02/M03 A3018 RMK A01 T10151031  RH  089%=      5-min Rain = 0
KTH1 141030Z 33002KT M02/M03 A3018 RMK A01 T10151031  RH  089%=      5-min Rain = 0
KTH1 141031Z 32002KT M01/M03 A3018 RMK A01 T10141030  RH  089%=      5-min Rain = 0
KTH1 141032Z 33002KT M01/M03 A3018 RMK A01 T10141029  RH  089%=      5-min Rain = 0
KTH1 141033Z 32002KT M01/M03 A3018 RMK A01 T10141029  RH  090%=      5-min Rain = 0
KTH1 141034Z 31001KT M01/M03 A3018 RMK A01 T10131028  RH  090%=      5-min Rain = 0
KTH1 141035Z 31002KT M01/M03 A3018 RMK A01 T10131027  RH  090%=      5-min Rain = 0
KTH1 141036Z 30001KT M01/M03 A3018 RMK A01 T10121027  RH  090%=      5-min Rain = 0
KTH1 141037Z 31002KT M01/M03 A3018 RMK A01 T10121026  RH  090%=      5-min Rain = 0
KTH1 141038Z 30001KT M01/M03 A3018 RMK A01 T10111027  RH  089%=      5-min Rain = 0
KTH1 141039Z 31001KT M01/M03 A3018 RMK A01 T10111027  RH  089%=      5-min Rain = 0
KTH1 141040Z 28001KT M01/M03 A3018 RMK A01 T10111026  RH  089%=      5-min Rain = 0
KTH1 141041Z 28000KT M01/M03 A3019 RMK A01 T10111027  RH  089%=      5-min Rain = 0
KTH1 141042Z 00000KT M01/M03 A3019 RMK A01 T10111028  RH  088%=      5-min Rain = 0
KTH1 141043Z 00000KT M01/M03 A3019 RMK A01 T10111028  RH  088%=      5-min Rain = 0
KTH1 141044Z 00000KT M01/M03 A3019 RMK A01 T10111028  RH  088%=      5-min Rain = 0
KTH1 141045Z 00000KT M01/M03 A3019 RMK A01 T10121028  RH  089%=      5-min Rain = 0
KTH1 141046Z 00000KT M01/M03 A3019 RMK A01 T10121028  RH  089%=      5-min Rain = 0
KTH1 141047Z 00000KT M01/M03 A3018 RMK A01 T10141029  RH  089%=      5-min Rain = 0
KTH1 141048Z 00000KT M02/M03 A3018 RMK A01 T10151030  RH  089%=      5-min Rain = 0
KTH1 141049Z 00000KT M02/M03 A3018 RMK A01 T10161031  RH  089%=      5-min Rain = 0
KTH1 141050Z 00000KT M02/M03 A3019 RMK A01 T10161030  RH  090%=      5-min Rain = 0
KTH1 141051Z 28000KT M02/M03 A3019 RMK A01 T10161030  RH  090%=      5-min Rain = 0
KTH1 141052Z 00000KT M02/M03 A3018 RMK A01 T10171030  RH  090%=      5-min Rain = 0
KTH1 141053Z 00000KT M02/M03 A3018 RMK A01 T10171030  RH  091%=      5-min Rain = 0
KTH1 141054Z 35001KT M02/M03 A3018 RMK A01 T10171030  RH  091%=      5-min Rain = 0
KTH1 141055Z 35000KT M02/M03 A3018 RMK A01 T10171030  RH  091%=      5-min Rain = 0
KTH1 141056Z 35000KT M02/M03 A3018 RMK A01 T10171029  RH  091%=      5-min Rain = 0
KTH1 141057Z 35001KT M02/M03 A3018 RMK A01 T10171029  RH  091%=      5-min Rain = 0
KTH1 141058Z 35000KT M02/M03 A3018 RMK A01 T10171030  RH  091%=      5-min Rain = 0
KTH1 141059Z 35001KT M02/M03 A3019 RMK A01 T10171030  RH  091%=      5-min Rain = 0
KTH1 141100Z 03001KT M02/M03 A3019 RMK A01 T10171030  RH  091%=      5-min Rain = 0
KTH1 141101Z 01001KT M02/M03 A3019 RMK A01 T10171030  RH  091%=      5-min Rain = 0
KTH1 141102Z 03001KT M02/M03 A3019 RMK A01 T10171031  RH  090%=      5-min Rain = 0
KTH1 141103Z 05001KT M02/M03 A3019 RMK A01 T10171031  RH  090%=      5-min Rain = 0
KTH1 141104Z 04001KT M02/M03 A3019 RMK A01 T10161031  RH  090%=      5-min Rain = 0
KTH1 141105Z 04001KT M02/M03 A3019 RMK A01 T10161031  RH  089%=      5-min Rain = 0
KTH1 141106Z 04001KT M02/M03 A3019 RMK A01 T10161031  RH  089%=      5-min Rain = 0
KTH1 141107Z 04001KT M02/M03 A3019 RMK A01 T10161031  RH  089%=      5-min Rain = 0
KTH1 141108Z 04001KT M02/M03 A3019 RMK A01 T10161031  RH  089%=      5-min Rain = 0
KTH1 141109Z 04000KT M02/M03 A3019 RMK A01 T10161032  RH  089%=      5-min Rain = 0
KTH1 141110Z 00000KT M02/M03 A3019 RMK A01 T10171032  RH  089%=      5-min Rain = 0
KTH1 141111Z 00000KT M02/M03 A3019 RMK A01 T10161032  RH  089%=      5-min Rain = 0
KTH1 141112Z 00000KT M02/M03 A3019 RMK A01 T10161032  RH  089%=      5-min Rain = 0
KTH1 141113Z 00000KT M02/M03 A3019 RMK A01 T10161032  RH  089%=      5-min Rain = 0
KTH1 141114Z 00000KT M02/M03 A3019 RMK A01 T10161033  RH  089%=      5-min Rain = 0
KTH1 141115Z 00000KT M02/M03 A3019 RMK A01 T10161033  RH  089%=      5-min Rain = 0
KTH1 141116Z 00000KT M02/M03 A3019 RMK A01 T10161033  RH  088%=      5-min Rain = 0
KTH1 141117Z 00000KT M02/M03 A3019 RMK A01 T10161033  RH  088%=      5-min Rain = 0
KTH1 141118Z 00000KT M02/M03 A3019 RMK A01 T10151032  RH  088%=      5-min Rain = 0
KTH1 141119Z 00000KT M02/M03 A3019 RMK A01 T10151032  RH  088%=      5-min Rain = 0
KTH1 141120Z 00000KT M02/M03 A3019 RMK A01 T10151032  RH  088%=      5-min Rain = 0
KTH1 141121Z 32001KT M02/M03 A302 RMK A01 T10151033  RH  088%=      5-min Rain = 0
KTH1 141122Z 31001KT M02/M03 A302 RMK A01 T10151032  RH  088%=      5-min Rain = 0
KTH1 141123Z 30001KT M01/M03 A302 RMK A01 T10141031  RH  088%=      5-min Rain = 0
KTH1 141124Z 31001KT M01/M03 A302 RMK A01 T10141031  RH  089%=      5-min Rain = 0
KTH1 141125Z 31001KT M01/M03 A302 RMK A01 T10141029  RH  089%=      5-min Rain = 0
KTH1 141126Z 28001KT M01/M03 A302 RMK A01 T10131028  RH  089%=      5-min Rain = 0
KTH1 141127Z 29001KT M01/M03 A302 RMK A01 T10131028  RH  090%=      5-min Rain = 0
KTH1 141128Z 30001KT M01/M03 A302 RMK A01 T10131027  RH  090%=      5-min Rain = 0
KTH1 141129Z 29001KT M01/M03 A302 RMK A01 T10121026  RH  090%=      5-min Rain = 0
KTH1 141130Z 30001KT M01/M03 A302 RMK A01 T10121026  RH  090%=      5-min Rain = 0
KTH1 141131Z 30002KT M01/M03 A302 RMK A01 T10121025  RH  091%=      5-min Rain = 0
KTH1 141132Z 31002KT M01/M02 A302 RMK A01 T10111023  RH  091%=      5-min Rain = 0
KTH1 141133Z 30002KT M01/M02 A302 RMK A01 T10101024  RH  091%=      5-min Rain = 0
KTH1 141134Z 30002KT M01/M02 A302 RMK A01 T10101022  RH  091%=      5-min Rain = 0
KTH1 141135Z 30002KT M01/M02 A302 RMK A01 T10091021  RH  091%=      5-min Rain = 0
KTH1 141136Z 30002KT M01/M02 A3021 RMK A01 T10091022  RH  091%=      5-min Rain = 0
KTH1 141137Z 29002KT M01/M02 A3021 RMK A01 T10091023  RH  090%=      5-min Rain = 0
KTH1 141138Z 30002KT M01/M02 A3021 RMK A01 T10091023  RH  090%=      5-min Rain = 0
KTH1 141139Z 30002KT M01/M02 A3021 RMK A01 T10101023  RH  090%=      5-min Rain = 0
KTH1 141140Z 29002KT M01/M02 A3021 RMK A01 T10101023  RH  091%=      5-min Rain = 0
KTH1 141141Z 30002KT M01/M02 A3021 RMK A01 T10101024  RH  090%=      5-min Rain = 0
KTH1 141142Z 30002KT M01/M03 A3021 RMK A01 T10111025  RH  090%=      5-min Rain = 0
KTH1 141143Z 30002KT M01/M03 A3021 RMK A01 T10111026  RH  090%=      5-min Rain = 0
KTH1 141144Z 31002KT M01/M03 A3021 RMK A01 T10121027  RH  090%=      5-min Rain = 0
KTH1 141145Z 31002KT M01/M03 A3022 RMK A01 T10121027  RH  090%=      5-min Rain = 0
KTH1 141146Z 32003KT M01/M03 A3022 RMK A01 T10121028  RH  089%=      5-min Rain = 0
KTH1 141147Z 33002KT M01/M03 A3022 RMK A01 T10121028  RH  089%=      5-min Rain = 0
KTH1 141148Z 33003KT M01/M03 A3022 RMK A01 T10121028  RH  089%=      5-min Rain = 0
KTH1 141149Z 32003KT M01/M03 A3022 RMK A01 T10121029  RH  088%=      5-min Rain = 0
KTH1 141150Z 32003KT M01/M03 A3022 RMK A01 T10121030  RH  088%=      5-min Rain = 0
KTH1 141151Z 33003KT M01/M03 A3022 RMK A01 T10121030  RH  088%=      5-min Rain = 0
KTH1 141152Z 33003KT M01/M03 A3022 RMK A01 T10131030  RH  088%=      5-min Rain = 0
KTH1 141153Z 34003KT M01/M03 A3022 RMK A01 T10131031  RH  087%=      5-min Rain = 0
KTH1 141154Z 35003KT M01/M03 A3022 RMK A01 T10131032  RH  087%=      5-min Rain = 0
KTH1 141155Z 35003KT M01/M03 A3022 RMK A01 T10141032  RH  087%=      5-min Rain = 0
KTH1 141156Z 35004KT M02/M03 A3022 RMK A01 T10151033  RH  087%=      5-min Rain = 0
KTH1 141157Z 34003KT M02/M03 A3022 RMK A01 T10151034  RH  087%=      5-min Rain = 0
KTH1 141158Z 34004KT M02/M03 A3023 RMK A01 T10161034  RH  087%=      5-min Rain = 0
KTH1 141159Z 34004KT M02/M03 A3023 RMK A01 T10161034  RH  088%=      5-min Rain = 0
KTH1 141200Z 34004KT M02/M03 A3023 RMK A01 T10171034  RH  088%=      5-min Rain = 0
KTH1 141201Z 34004KT M02/M03 A3023 RMK A01 T10171034  RH  088%=      5-min Rain = 0
KTH1 141202Z 35004KT M02/M04 A3023 RMK A01 T10171035  RH  088%=      5-min Rain = 0
KTH1 141203Z 34004KT M02/M04 A3023 RMK A01 T10181035  RH  088%=      5-min Rain = 0
KTH1 141204Z 35003KT M02/M04 A3023 RMK A01 T10181035  RH  088%=      5-min Rain = 0
KTH1 141205Z 35004KT M02/M04 A3023 RMK A01 T10181035  RH  088%=      5-min Rain = 0
KTH1 141206Z 35004KT M02/M04 A3023 RMK A01 T10181035  RH  088%=      5-min Rain = 0
KTH1 141207Z 35004KT M02/M04 A3023 RMK A01 T10191036  RH  088%=      5-min Rain = 0
KTH1 141208Z 35004KT M02/M04 A3023 RMK A01 T10201036  RH  089%=      5-min Rain = 0
KTH1 141209Z 35004KT M02/M04 A3023 RMK A01 T10201036  RH  089%=      5-min Rain = 0
KTH1 141210Z 35005KT M02/M04 A3023 RMK A01 T10211037  RH  089%=      5-min Rain = 0
KTH1 141211Z 35004KT M02/M04 A3023 RMK A01 T10211037  RH  089%=      5-min Rain = 0
KTH1 141212Z 35005KT M02/M04 A3023 RMK A01 T10211036  RH  089%=      5-min Rain = 0
KTH1 141213Z 36005KT M02/M04 A3023 RMK A01 T10211036  RH  089%=      5-min Rain = 0
KTH1 141214Z 36004KT M02/M04 A3023 RMK A01 T10211036  RH  089%=      5-min Rain = 0
KTH1 141215Z 00003KT M02/M04 A3023 RMK A01 T10211036  RH  089%=      5-min Rain = 0
KTH1 141216Z 00004KT M02/M04 A3023 RMK A01 T10211037  RH  089%=      5-min Rain = 0
KTH1 141217Z 36005KT M02/M04 A3023 RMK A01 T10211037  RH  089%=      5-min Rain = 0
KTH1 141218Z 35005KT M02/M04 A3023 RMK A01 T10211036  RH  089%=      5-min Rain = 0
KTH1 141219Z 00005KT M02/M04 A3023 RMK A01 T10211036  RH  090%=      5-min Rain = 0
KTH1 141220Z 35005KT M02/M04 A3023 RMK A01 T10211036  RH  090%=      5-min Rain = 0
KTH1 141221Z 36005KT M02/M04 A3023 RMK A01 T10221037  RH  090%=      5-min Rain = 0
KTH1 141222Z 00004KT M02/M04 A3023 RMK A01 T10221036  RH  090%=      5-min Rain = 0
KTH1 141223Z 36005KT M02/M04 A3023 RMK A01 T10221036  RH  090%=      5-min Rain = 0
KTH1 141224Z 36003KT M02/M04 A3023 RMK A01 T10221036  RH  090%=      5-min Rain = 0
KTH1 141225Z 01004KT M02/M04 A3023 RMK A01 T10221036  RH  090%=      5-min Rain = 0
KTH1 141226Z 35003KT M02/M04 A3023 RMK A01 T10221036  RH  090%=      5-min Rain = 0
KTH1 141227Z 35004KT M02/M04 A3024 RMK A01 T10221036  RH  090%=      5-min Rain = 0
KTH1 141228Z 35003KT M02/M04 A3024 RMK A01 T10221036  RH  090%=      5-min Rain = 0
KTH1 141229Z 35004KT M02/M04 A3024 RMK A01 T10221036  RH  090%=      5-min Rain = 0
KTH1 141230Z 35003KT M02/M04 A3024 RMK A01 T10221035  RH  091%=      5-min Rain = 0
KTH1 141231Z 34003KT M02/M04 A3024 RMK A01 T10211035  RH  091%=      5-min Rain = 0
KTH1 141232Z 35002KT M02/M03 A3024 RMK A01 T10211034  RH  090%=      5-min Rain = 0
KTH1 141233Z 34002KT M02/M04 A3024 RMK A01 T10201035  RH  090%=      5-min Rain = 0
KTH1 141234Z 35002KT M02/M04 A3024 RMK A01 T10211035  RH  090%=      5-min Rain = 0
KTH1 141235Z 35002KT M02/M04 A3024 RMK A01 T10201035  RH  090%=      5-min Rain = 0
KTH1 141236Z 36002KT M02/M04 A3024 RMK A01 T10201035  RH  090%=      5-min Rain = 0
KTH1 141237Z 35003KT M02/M04 A3024 RMK A01 T10201035  RH  089%=      5-min Rain = 0
KTH1 141238Z 34003KT M02/M04 A3024 RMK A01 T10201035  RH  089%=      5-min Rain = 0
KTH1 141239Z 34002KT M02/M04 A3024 RMK A01 T10201035  RH  089%=      5-min Rain = 0
KTH1 141240Z 35003KT M02/M04 A3024 RMK A01 T10201035  RH  089%=      5-min Rain = 0
KTH1 141241Z 00002KT M02/M04 A3024 RMK A01 T10201035  RH  089%=      5-min Rain = 0
KTH1 141242Z 35002KT M02/M04 A3024 RMK A01 T10201036  RH  089%=      5-min Rain = 0
KTH1 141243Z 35003KT M02/M04 A3024 RMK A01 T10201036  RH  089%=      5-min Rain = 0
KTH1 141244Z 35003KT M02/M04 A3024 RMK A01 T10211036  RH  089%=      5-min Rain = 0
KTH1 141245Z 35003KT M02/M04 A3025 RMK A01 T10201036  RH  089%=      5-min Rain = 0
KTH1 141246Z 35003KT M02/M04 A3025 RMK A01 T10201035  RH  089%=      5-min Rain = 0
KTH1 141247Z 35003KT M02/M04 A3025 RMK A01 T10201035  RH  090%=      5-min Rain = 0
KTH1 141248Z 35003KT M02/M04 A3025 RMK A01 T10211036  RH  090%=      5-min Rain = 0
KTH1 141249Z 35003KT M02/M04 A3025 RMK A01 T10211036  RH  090%=      5-min Rain = 0
KTH1 141250Z 36003KT M02/M04 A3025 RMK A01 T10211036  RH  090%=      5-min Rain = 0
KTH1 141251Z 35003KT M02/M04 A3025 RMK A01 T10211036  RH  090%=      5-min Rain = 0
KTH1 141252Z 35003KT M02/M04 A3025 RMK A01 T10211036  RH  089%=      5-min Rain = 0
KTH1 141253Z 34003KT M02/M04 A3025 RMK A01 T10211036  RH  090%=      5-min Rain = 0
KTH1 141254Z 34003KT M02/M04 A3025 RMK A01 T10211036  RH  090%=      5-min Rain = 0
KTH1 141255Z 34003KT M02/M04 A3025 RMK A01 T10211036  RH  090%=      5-min Rain = 0
KTH1 141256Z 34002KT M02/M04 A3025 RMK A01 T10211036  RH  090%=      5-min Rain = 0
KTH1 141257Z 34004KT M02/M04 A3025 RMK A01 T10211035  RH  090%=      5-min Rain = 0
KTH1 141258Z 34003KT M02/M04 A3025 RMK A01 T10211036  RH  090%=      5-min Rain = 0
KTH1 141259Z 33003KT M02/M04 A3025 RMK A01 T10211036  RH  090%=      5-min Rain = 0
KTH1 141300Z 33003KT M02/M04 A3025 RMK A01 T10211036  RH  090%=      5-min Rain = 0
KTH1 141301Z 32003KT M02/M04 A3026 RMK A01 T10211036  RH  090%=      5-min Rain = 0
KTH1 141302Z 32003KT M02/M04 A3026 RMK A01 T10211036  RH  090%=      5-min Rain = 0
KTH1 141303Z 33003KT M02/M04 A3026 RMK A01 T10211035  RH  090%=      5-min Rain = 0
KTH1 141304Z 32003KT M02/M03 A3026 RMK A01 T10211034  RH  090%=      5-min Rain = 0
KTH1 141305Z 32003KT M02/M03 A3026 RMK A01 T10201033  RH  091%=      5-min Rain = 0
KTH1 141306Z 31002KT M02/M03 A3026 RMK A01 T10201034  RH  090%=      5-min Rain = 0
KTH1 141307Z 32003KT M02/M03 A3026 RMK A01 T10201034  RH  090%=      5-min Rain = 0
KTH1 141308Z 31002KT M02/M03 A3026 RMK A01 T10191034  RH  090%=      5-min Rain = 0
KTH1 141309Z 30002KT M02/M03 A3026 RMK A01 T10181033  RH  090%=      5-min Rain = 0
KTH1 141310Z 31002KT M02/M03 A3026 RMK A01 T10181032  RH  090%=      5-min Rain = 0
KTH1 141311Z 34002KT M02/M03 A3026 RMK A01 T10181032  RH  090%=      5-min Rain = 0
KTH1 141312Z 32002KT M02/M03 A3026 RMK A01 T10181033  RH  089%=      5-min Rain = 0
KTH1 141313Z 32002KT M02/M03 A3026 RMK A01 T10171033  RH  089%=      5-min Rain = 0
KTH1 141314Z 33003KT M02/M03 A3026 RMK A01 T10171033  RH  089%=      5-min Rain = 0
KTH1 141315Z 32002KT M02/M03 A3026 RMK A01 T10171033  RH  089%=      5-min Rain = 0
KTH1 141316Z 32002KT M02/M03 A3026 RMK A01 T10171033  RH  089%=      5-min Rain = 0
KTH1 141317Z 33002KT M02/M03 A3026 RMK A01 T10171033  RH  089%=      5-min Rain = 0
KTH1 141318Z 31002KT M02/M03 A3026 RMK A01 T10171034  RH  088%=      5-min Rain = 0
KTH1 141319Z 32002KT M02/M03 A3026 RMK A01 T10171034  RH  088%=      5-min Rain = 0
KTH1 141320Z 32002KT M02/M03 A3026 RMK A01 T10171034  RH  088%=      5-min Rain = 0
KTH1 141321Z 32003KT M02/M03 A3026 RMK A01 T10171034  RH  088%=      5-min Rain = 0
KTH1 141322Z 31003KT M02/M04 A3026 RMK A01 T10181035  RH  088%=      5-min Rain = 0
KTH1 141323Z 32003KT M02/M03 A3026 RMK A01 T10181034  RH  089%=      5-min Rain = 0
KTH1 141324Z 32003KT M02/M03 A3026 RMK A01 T10181034  RH  089%=      5-min Rain = 0
KTH1 141325Z 31004KT M02/M03 A3026 RMK A01 T10181034  RH  089%=      5-min Rain = 0
KTH1 141326Z 32003KT M02/M03 A3026 RMK A01 T10171034  RH  089%=      5-min Rain = 0
KTH1 141327Z 31002KT M02/M03 A3027 RMK A01 T10171034  RH  088%=      5-min Rain = 0
KTH1 141328Z 31003KT M02/M03 A3027 RMK A01 T10171034  RH  088%=      5-min Rain = 0
KTH1 141329Z 31003KT M02/M03 A3027 RMK A01 T10171033  RH  089%=      5-min Rain = 0
KTH1 141330Z 32004KT M02/M03 A3027 RMK A01 T10161031  RH  089%=      5-min Rain = 0
KTH1 141331Z 31004KT M02/M03 A3027 RMK A01 T10151032  RH  089%=      5-min Rain = 0
KTH1 141332Z 32004KT M02/M03 A3027 RMK A01 T10151033  RH  088%=      5-min Rain = 0
KTH1 141333Z 31004KT M02/M03 A3027 RMK A01 T10151033  RH  088%=      5-min Rain = 0
KTH1 141334Z 31003KT M02/M03 A3027 RMK A01 T10151032  RH  088%=      5-min Rain = 0
KTH1 141335Z 31003KT M01/M03 A3027 RMK A01 T10141031  RH  088%=      5-min Rain = 0
KTH1 141336Z 32003KT M01/M03 A3028 RMK A01 T10141032  RH  088%=      5-min Rain = 0
KTH1 141337Z 30002KT M01/M03 A3028 RMK A01 T10141032  RH  088%=      5-min Rain = 0
KTH1 141338Z 31003KT M01/M03 A3028 RMK A01 T10141031  RH  088%=      5-min Rain = 0
KTH1 141339Z 32003KT M01/M03 A3028 RMK A01 T10131031  RH  088%=      5-min Rain = 0
KTH1 141340Z 31004KT M01/M03 A3028 RMK A01 T10131031  RH  088%=      5-min Rain = 0
KTH1 141341Z 32003KT M01/M03 A3028 RMK A01 T10131031  RH  088%=      5-min Rain = 0
KTH1 141342Z 33004KT M01/M03 A3028 RMK A01 T10121031  RH  087%=      5-min Rain = 0
KTH1 141343Z 32003KT M01/M03 A3028 RMK A01 T10131032  RH  087%=      5-min Rain = 0
KTH1 141344Z 32003KT M01/M03 A3028 RMK A01 T10121031  RH  087%=      5-min Rain = 0
KTH1 141345Z 33004KT M01/M03 A3028 RMK A01 T10121031  RH  087%=      5-min Rain = 0
KTH1 141346Z 32003KT M01/M03 A3028 RMK A01 T10121032  RH  086%=      5-min Rain = 0
KTH1 141347Z 34003KT M01/M03 A3028 RMK A01 T10121033  RH  086%=      5-min Rain = 0
KTH1 141348Z 32004KT M01/M03 A3028 RMK A01 T10121032  RH  086%=      5-min Rain = 0
KTH1 141349Z 32004KT M01/M03 A3028 RMK A01 T10111032  RH  086%=      5-min Rain = 0
KTH1 141350Z 32005KT M01/M03 A3028 RMK A01 T10111032  RH  086%=      5-min Rain = 0
KTH1 141351Z 32004KT M01/M03 A3028 RMK A01 T10111033  RH  085%=      5-min Rain = 0
KTH1 141352Z 33005KT M01/M03 A3028 RMK A01 T10101032  RH  086%=      5-min Rain = 0
KTH1 141353Z 32003KT M01/M03 A3028 RMK A01 T10101031  RH  086%=      5-min Rain = 0
KTH1 141354Z 33003KT M01/M03 A3028 RMK A01 T10101031  RH  085%=      5-min Rain = 0
KTH1 141355Z 33004KT M01/M03 A3028 RMK A01 T10091031  RH  085%=      5-min Rain = 0
KTH1 141356Z 33004KT M01/M03 A3029 RMK A01 T10091031  RH  085%=      5-min Rain = 0
KTH1 141357Z 32004KT M01/M03 A3029 RMK A01 T10081031  RH  085%=      5-min Rain = 0
KTH1 141358Z 33003KT M01/M03 A3029 RMK A01 T10081030  RH  085%=      5-min Rain = 0
KTH1 141359Z 33003KT M01/M03 A3029 RMK A01 T10081030  RH  085%=      5-min Rain = 0
KTH1 141400Z 33004KT M01/M03 A3029 RMK A01 T10071030  RH  084%=      5-min Rain = 0
KTH1 141401Z 34005KT M01/M03 A3029 RMK A01 T10071029  RH  085%=      5-min Rain = 0
KTH1 141402Z 33003KT M01/M03 A3029 RMK A01 T10061029  RH  084%=      5-min Rain = 0
KTH1 141403Z 34004KT M01/M03 A3029 RMK A01 T10051028  RH  084%=      5-min Rain = 0
KTH1 141404Z 35005KT M01/M03 A3029 RMK A01 T10051029  RH  084%=      5-min Rain = 0
KTH1 141405Z 33004KT M00/M03 A3029 RMK A01 T10041029  RH  083%=      5-min Rain = 0
KTH1 141406Z 34005KT M00/M03 A3029 RMK A01 T10031028  RH  083%=      5-min Rain = 0
KTH1 141407Z 34005KT M00/M03 A3029 RMK A01 T10021027  RH  083%=      5-min Rain = 0
KTH1 141408Z 34004KT M00/M03 A3029 RMK A01 T10011028  RH  082%=      5-min Rain = 0
KTH1 141409Z 35004KT M00/M03 A303 RMK A01 T10011027  RH  082%=      5-min Rain = 0
KTH1 141410Z 34003KT 00/03 A303 RMK A01 T00000-27  RH  082%=      5-min Rain = 0
KTH1 141411Z 33002KT 00/M03 A303 RMK A01 T00011027  RH  082%=      5-min Rain = 0
KTH1 141412Z 34003KT 00/M03 A303 RMK A01 T00021025  RH  082%=      5-min Rain = 0
KTH1 141413Z 34004KT 00/M03 A303 RMK A01 T00021025  RH  082%=      5-min Rain = 0
KTH1 141414Z 35003KT 00/M03 A303 RMK A01 T00031026  RH  081%=      5-min Rain = 0
KTH1 141415Z 35005KT 00/M03 A303 RMK A01 T00031025  RH  081%=      5-min Rain = 0
KTH1 141416Z 35005KT 00/M03 A303 RMK A01 T00031026  RH  081%=      5-min Rain = 0
KTH1 141417Z 34004KT 00/M03 A303 RMK A01 T00041026  RH  081%=      5-min Rain = 0
KTH1 141418Z 34003KT 00/M03 A303 RMK A01 T00041025  RH  081%=      5-min Rain = 0
KTH1 141419Z 35004KT 00/M02 A303 RMK A01 T00041024  RH  081%=      5-min Rain = 0
KTH1 141420Z 35004KT 01/M02 A3031 RMK A01 T00051024  RH  081%=      5-min Rain = 0
KTH1 141421Z 36005KT 01/M02 A3031 RMK A01 T00061024  RH  081%=      5-min Rain = 0
KTH1 141422Z 34002KT 01/M03 A3031 RMK A01 T00051025  RH  080%=      5-min Rain = 0
KTH1 141423Z 34005KT 01/M02 A3031 RMK A01 T00061024  RH  080%=      5-min Rain = 0
KTH1 141424Z 35003KT 01/M03 A3031 RMK A01 T00061025  RH  080%=      5-min Rain = 0
KTH1 141425Z 35004KT 01/M02 A3031 RMK A01 T00071024  RH  080%=      5-min Rain = 0
KTH1 141426Z 33003KT 01/M03 A3031 RMK A01 T00081025  RH  079%=      5-min Rain = 0
KTH1 141427Z 35003KT 01/M02 A3031 RMK A01 T00081024  RH  079%=      5-min Rain = 0
KTH1 141428Z 35004KT 01/M02 A3031 RMK A01 T00091022  RH  080%=      5-min Rain = 0
KTH1 141429Z 35004KT 01/M02 A3031 RMK A01 T00101022  RH  079%=      5-min Rain = 0
KTH1 141430Z 36004KT 01/M02 A3031 RMK A01 T00101023  RH  079%=      5-min Rain = 0
KTH1 141431Z 35005KT 01/M02 A3031 RMK A01 T00101023  RH  078%=      5-min Rain = 0
KTH1 141432Z 01004KT 01/M03 A3031 RMK A01 T00101025  RH  078%=      5-min Rain = 0
KTH1 141433Z 35005KT 01/M02 A3031 RMK A01 T00101024  RH  078%=      5-min Rain = 0
KTH1 141434Z 00006KT 01/M02 A3031 RMK A01 T00101024  RH  078%=      5-min Rain = 0
KTH1 141435Z 36003KT 01/M03 A3032 RMK A01 T00101025  RH  078%=      5-min Rain = 0
KTH1 141436Z 35005KT 01/M02 A3032 RMK A01 T00101023  RH  079%=      5-min Rain = 0
KTH1 141437Z 36004KT 01/M02 A3032 RMK A01 T00111021  RH  079%=      5-min Rain = 0
KTH1 141438Z 35006KT 01/M02 A3032 RMK A01 T00111022  RH  078%=      5-min Rain = 0
KTH1 141439Z 35005KT 01/M02 A3032 RMK A01 T00111024  RH  077%=      5-min Rain = 0
KTH1 141440Z 35003KT 01/M02 A3032 RMK A01 T00121023  RH  078%=      5-min Rain = 0
KTH1 141441Z 34003KT 01/M02 A3032 RMK A01 T00121021  RH  078%=      5-min Rain = 0
KTH1 141442Z 35004KT 01/M02 A3032 RMK A01 T00131020  RH  078%=      5-min Rain = 0
KTH1 141443Z 35005KT 02/M02 A3032 RMK A01 T00151020  RH  078%=      5-min Rain = 0
KTH1 141444Z 35005KT 02/M02 A3032 RMK A01 T00151020  RH  077%=      5-min Rain = 0
KTH1 141445Z 35006KT 02/M02 A3032 RMK A01 T00161021  RH  077%=      5-min Rain = 0
KTH1 141446Z 35003KT 02/M02 A3032 RMK A01 T00161022  RH  076%=      5-min Rain = 0
KTH1 141447Z 34004KT 02/M02 A3032 RMK A01 T00161020  RH  077%=      5-min Rain = 0
KTH1 141448Z 36005KT 02/M02 A3032 RMK A01 T00171019  RH  077%=      5-min Rain = 0
KTH1 141449Z 35005KT 02/M02 A3032 RMK A01 T00181020  RH  076%=      5-min Rain = 0
KTH1 141450Z 35004KT 02/M02 A3032 RMK A01 T00181021  RH  075%=      5-min Rain = 0
KTH1 141451Z 34002KT 02/M02 A3032 RMK A01 T00191020  RH  075%=      5-min Rain = 0
KTH1 141452Z 35003KT 02/M02 A3032 RMK A01 T00211016  RH  077%=      5-min Rain = 0
KTH1 141453Z 34004KT 02/M02 A3033 RMK A01 T00221015  RH  076%=      5-min Rain = 0
KTH1 141454Z 34005KT 02/M02 A3033 RMK A01 T00231016  RH  075%=      5-min Rain = 0
KTH1 141455Z 34003KT 02/M02 A3033 RMK A01 T00241016  RH  075%=      5-min Rain = 0
KTH1 141456Z 35004KT 03/M02 A3033 RMK A01 T00251016  RH  075%=      5-min Rain = 0
KTH1 141457Z 34003KT 03/M02 A3033 RMK A01 T00251017  RH  074%=      5-min Rain = 0
KTH1 141458Z 34004KT 03/M02 A3033 RMK A01 T00261016  RH  074%=      5-min Rain = 0
KTH1 141459Z 34003KT 03/M02 A3033 RMK A01 T00271016  RH  074%=      5-min Rain = 0
KTH1 141500Z 35004KT 03/M02 A3033 RMK A01 T00271015  RH  074%=      5-min Rain = 0
KTH1 141501Z 36005KT 03/M02 A3033 RMK A01 T00281015  RH  073%=      5-min Rain = 0
KTH1 141502Z 35005KT 03/M02 A3033 RMK A01 T00281016  RH  073%=      5-min Rain = 0
KTH1 141503Z 35006KT 03/M02 A3033 RMK A01 T00291016  RH  072%=      5-min Rain = 0
KTH1 141504Z 35004KT 03/M02 A3033 RMK A01 T00291016  RH  072%=      5-min Rain = 0
KTH1 141505Z 35005KT 03/M02 A3033 RMK A01 T00301015  RH  072%=      5-min Rain = 0
KTH1 141506Z 35004KT 03/M02 A3033 RMK A01 T00301016  RH  072%=      5-min Rain = 0
KTH1 141507Z 35004KT 03/M01 A3033 RMK A01 T00311014  RH  072%=      5-min Rain = 0
KTH1 141508Z 34004KT 03/M01 A3034 RMK A01 T00331013  RH  072%=      5-min Rain = 0
KTH1 141509Z 35004KT 03/M01 A3034 RMK A01 T00331014  RH  071%=      5-min Rain = 0
KTH1 141510Z 35004KT 03/M01 A3034 RMK A01 T00341014  RH  071%=      5-min Rain = 0
KTH1 141511Z 35006KT 04/M02 A3034 RMK A01 T00351015  RH  070%=      5-min Rain = 0
KTH1 141512Z 34004KT 04/M02 A3034 RMK A01 T00351015  RH  069%=      5-min Rain = 0
KTH1 141513Z 35005KT 04/M02 A3034 RMK A01 T00361015  RH  069%=      5-min Rain = 0
KTH1 141514Z 35006KT 04/M01 A3034 RMK A01 T00381014  RH  069%=      5-min Rain = 0
KTH1 141515Z 34005KT 04/M02 A3034 RMK A01 T00381016  RH  068%=      5-min Rain = 0
KTH1 141516Z 34004KT 04/M02 A3034 RMK A01 T00381015  RH  068%=      5-min Rain = 0
KTH1 141517Z 34005KT 04/M02 A3034 RMK A01 T00391015  RH  068%=      5-min Rain = 0
KTH1 141518Z 35006KT 04/M02 A3034 RMK A01 T00391015  RH  068%=      5-min Rain = 0
KTH1 141519Z 35006KT 04/M02 A3034 RMK A01 T00401015  RH  067%=      5-min Rain = 0
KTH1 141520Z 36005KT 04/M02 A3034 RMK A01 T00411016  RH  066%=      5-min Rain = 0
KTH1 141521Z 34005KT 04/M02 A3034 RMK A01 T00421016  RH  066%=      5-min Rain = 0
KTH1 141522Z 35005KT 04/M02 A3034 RMK A01 T00431016  RH  066%=      5-min Rain = 0
KTH1 141523Z 34005KT 04/M02 A3034 RMK A01 T00441016  RH  065%=      5-min Rain = 0
KTH1 141524Z 00005KT 05/M02 A3034 RMK A01 T00451017  RH  064%=      5-min Rain = 0
KTH1 141525Z 35006KT 05/M02 A3035 RMK A01 T00461019  RH  063%=      5-min Rain = 0
KTH1 141526Z 01004KT 05/M02 A3035 RMK A01 T00471018  RH  063%=      5-min Rain = 0
KTH1 141527Z 34005KT 05/M02 A3035 RMK A01 T00481017  RH  063%=      5-min Rain = 0
KTH1 141528Z 01007KT 05/M02 A3035 RMK A01 T00491018  RH  062%=      5-min Rain = 0
KTH1 141529Z 02007KT 05/M02 A3035 RMK A01 T00501022  RH  060%=      5-min Rain = 0
KTH1 141530Z 02006KT 05/M03 A3035 RMK A01 T00501026  RH  058%=      5-min Rain = 0
KTH1 141531Z 03007KT 05/M03 A3035 RMK A01 T00511026  RH  057%=      5-min Rain = 0
KTH1 141532Z 02005KT 05/M02 A3035 RMK A01 T00531023  RH  058%=      5-min Rain = 0
KTH1 141533Z 01005KT 06/M02 A3035 RMK A01 T00551020  RH  059%=      5-min Rain = 0
KTH1 141534Z 02007KT 06/M02 A3035 RMK A01 T00561022  RH  057%=      5-min Rain = 0
KTH1 141535Z 35005KT 06/M03 A3035 RMK A01 T00561025  RH  056%=      5-min Rain = 0
KTH1 141536Z 02004KT 06/M02 A3035 RMK A01 T00551021  RH  058%=      5-min Rain = 0
KTH1 141537Z 01004KT 06/M02 A3035 RMK A01 T00571019  RH  058%=      5-min Rain = 0
KTH1 141538Z 02006KT 06/M02 A3035 RMK A01 T00581022  RH  056%=      5-min Rain = 0
KTH1 141539Z 35004KT 06/M02 A3035 RMK A01 T00591022  RH  056%=      5-min Rain = 0
KTH1 141540Z 00006KT 06/M02 A3035 RMK A01 T00601023  RH  055%=      5-min Rain = 0
KTH1 141541Z 35005KT 06/M02 A3035 RMK A01 T00601024  RH  055%=      5-min Rain = 0
KTH1 141542Z 35006KT 06/M03 A3035 RMK A01 T00601025  RH  054%=      5-min Rain = 0
KTH1 141543Z 01007KT 06/M02 A3035 RMK A01 T00611023  RH  055%=      5-min Rain = 0
KTH1 141544Z 01005KT 06/M02 A3035 RMK A01 T00611023  RH  055%=      5-min Rain = 0
KTH1 141545Z 36006G11KT 06/M02 A3035 RMK A01 T00631022  RH  055%=      5-min Rain = 0
KTH1 141546Z 36006KT 06/M02 A3035 RMK A01 T00641024  RH  053%=      5-min Rain = 0
KTH1 141547Z 01009KT 06/M03 A3035 RMK A01 T00631026  RH  053%=      5-min Rain = 0
KTH1 141548Z 01007KT 06/M03 A3036 RMK A01 T00621028  RH  052%=      5-min Rain = 0
KTH1 141549Z 01005KT 06/M03 A3036 RMK A01 T00621027  RH  053%=      5-min Rain = 0
KTH1 141550Z 00005G11KT 06/M03 A3036 RMK A01 T00631025  RH  053%=      5-min Rain = 0
KTH1 141551Z 01007KT 06/M03 A3036 RMK A01 T00641025  RH  053%=      5-min Rain = 0
KTH1 141552Z 01010KT 06/M03 A3036 RMK A01 T00641028  RH  052%=      5-min Rain = 0
KTH1 141553Z 01008KT 06/M03 A3036 RMK A01 T00631030  RH  051%=      5-min Rain = 0
KTH1 141554Z 02009KT 06/M03 A3036 RMK A01 T00631028  RH  052%=      5-min Rain = 0
KTH1 141555Z 04009KT 06/M03 A3036 RMK A01 T00641030  RH  051%=      5-min Rain = 0
KTH1 141556Z 02007KT 06/M03 A3036 RMK A01 T00641028  RH  052%=      5-min Rain = 0
KTH1 141557Z 01005KT 07/M02 A3036 RMK A01 T00671024  RH  052%=      5-min Rain = 0
KTH1 141558Z 02009KT 07/M02 A3036 RMK A01 T00691022  RH  052%=      5-min Rain = 0
KTH1 141559Z 01009KT 07/M03 A3036 RMK A01 T00701028  RH  050%=      5-min Rain = 0
KTH1 141600Z 01011KT 07/M03 A3036 RMK A01 T00681031  RH  049%=      5-min Rain = 0
KTH1 141601Z 02009KT 07/M03 A3036 RMK A01 T00681031  RH  050%=      5-min Rain = 0
KTH1 141602Z 01007KT 07/M03 A3036 RMK A01 T00681029  RH  050%=      5-min Rain = 0
KTH1 141603Z 02007KT 07/M03 A3036 RMK A01 T00691027  RH  050%=      5-min Rain = 0
KTH1 141604Z 02007KT 07/M03 A3036 RMK A01 T00721025  RH  050%=      5-min Rain = 0
KTH1 141605Z 02009KT 07/M03 A3036 RMK A01 T00731027  RH  049%=      5-min Rain = 0
KTH1 141606Z 02009KT 07/M03 A3036 RMK A01 T00741031  RH  047%=      5-min Rain = 0
KTH1 141607Z 01008KT 07/M03 A3036 RMK A01 T00731032  RH  047%=      5-min Rain = 0
KTH1 141608Z 03009KT 07/M03 A3036 RMK A01 T00731031  RH  048%=      5-min Rain = 0
KTH1 141609Z 02012KT 07/M03 A3036 RMK A01 T00741032  RH  047%=      5-min Rain = 0
KTH1 141610Z 03009KT 07/M03 A3036 RMK A01 T00741032  RH  047%=      5-min Rain = 0
KTH1 141611Z 03010KT 07/M03 A3036 RMK A01 T00741033  RH  046%=      5-min Rain = 0
KTH1 141612Z 02009G14KT 08/M03 A3036 RMK A01 T00751031  RH  047%=      5-min Rain = 0
KTH1 141613Z 02009KT 08/M03 A3036 RMK A01 T00761033  RH  046%=      5-min Rain = 0
KTH1 141614Z 00010KT 08/M04 A3036 RMK A01 T00761035  RH  045%=      5-min Rain = 0
KTH1 141615Z 01008KT 08/M03 A3036 RMK A01 T00761034  RH  046%=      5-min Rain = 0
KTH1 141616Z 02011KT 08/M03 A3036 RMK A01 T00761034  RH  046%=      5-min Rain = 0
KTH1 141617Z 01010KT 08/M03 A3036 RMK A01 T00771034  RH  046%=      5-min Rain = 0
KTH1 141618Z 02011KT 08/M03 A3036 RMK A01 T00771034  RH  045%=      5-min Rain = 0
KTH1 141619Z 03010KT 08/M03 A3036 RMK A01 T00771034  RH  045%=      5-min Rain = 0
KTH1 141620Z 03007KT 08/M03 A3036 RMK A01 T00771033  RH  046%=      5-min Rain = 0
KTH1 141621Z 03010KT 08/M03 A3037 RMK A01 T00791031  RH  046%=      5-min Rain = 0
KTH1 141622Z 02012G17KT 08/M03 A3036 RMK A01 T00811034  RH  044%=      5-min Rain = 0
KTH1 141623Z 02012KT 08/M04 A3037 RMK A01 T00811035  RH  044%=      5-min Rain = 0
KTH1 141624Z 03013KT 08/M04 A3037 RMK A01 T00801038  RH  043%=      5-min Rain = 0
KTH1 141625Z 03013KT 08/M04 A3036 RMK A01 T00791038  RH  043%=      5-min Rain = 0
KTH1 141626Z 04008G14KT 08/M04 A3037 RMK A01 T00791037  RH  044%=      5-min Rain = 0
KTH1 141627Z 04010G15KT 08/M04 A3037 RMK A01 T00791035  RH  044%=      5-min Rain = 0
KTH1 141628Z 03012KT 08/M03 A3037 RMK A01 T00811033  RH  044%=      5-min Rain = 0
KTH1 141629Z 02011KT 08/M04 A3037 RMK A01 T00811035  RH  044%=      5-min Rain = 0
KTH1 141630Z 02010G15KT 08/M04 A3037 RMK A01 T00811035  RH  044%=      5-min Rain = 0
KTH1 141631Z 03007KT 08/M03 A3037 RMK A01 T00821033  RH  044%=      5-min Rain = 0
KTH1 141632Z 03011KT 09/M03 A3037 RMK A01 T00851031  RH  044%=      5-min Rain = 0
KTH1 141633Z 04007KT 08/M03 A3037 RMK A01 T00841034  RH  043%=      5-min Rain = 0
KTH1 141634Z 01006KT 08/M03 A3037 RMK A01 T00841031  RH  044%=      5-min Rain = 0
KTH1 141635Z 03009KT 09/M03 A3037 RMK A01 T00861031  RH  044%=      5-min Rain = 0
KTH1 141636Z 03012KT 09/M03 A3037 RMK A01 T00871033  RH  043%=      5-min Rain = 0
KTH1 141637Z 03012KT 09/M04 A3037 RMK A01 T00861035  RH  042%=      5-min Rain = 0
KTH1 141638Z 03012KT 09/M04 A3037 RMK A01 T00851036  RH  042%=      5-min Rain = 0
KTH1 141639Z 02013G18KT 08/M04 A3037 RMK A01 T00831036  RH  043%=      5-min Rain = 0
KTH1 141640Z 03013G18KT 08/M04 A3037 RMK A01 T00831036  RH  043%=      5-min Rain = 0
KTH1 141641Z 05011KT 08/M04 A3037 RMK A01 T00831036  RH  043%=      5-min Rain = 0
KTH1 141642Z 05014KT 09/M03 A3037 RMK A01 T00851033  RH  043%=      5-min Rain = 0
KTH1 141643Z 05013KT 09/M03 A3038 RMK A01 T00861034  RH  042%=      5-min Rain = 0
KTH1 141644Z 04011KT 09/M03 A3037 RMK A01 T00871032  RH  043%=      5-min Rain = 0
KTH1 141645Z 04010KT 09/M03 A3038 RMK A01 T00881029  RH  044%=      5-min Rain = 0
KTH1 141646Z 04010KT 09/M03 A3038 RMK A01 T00891029  RH  043%=      5-min Rain = 0
KTH1 141647Z 04010KT 09/M03 A3038 RMK A01 T00891031  RH  043%=      5-min Rain = 0
KTH1 141648Z 05013KT 09/M03 A3037 RMK A01 T00881028  RH  044%=      5-min Rain = 0
KTH1 141649Z 04007KT 09/M03 A3038 RMK A01 T00891028  RH  044%=      5-min Rain = 0
KTH1 141650Z 03008KT 09/M02 A3038 RMK A01 T00911024  RH  044%=      5-min Rain = 0
KTH1 141651Z 04012KT 09/M03 A3038 RMK A01 T00931025  RH  043%=      5-min Rain = 0
KTH1 141652Z 02010KT 09/M03 A3038 RMK A01 T00911029  RH  043%=      5-min Rain = 0
KTH1 141653Z 01014KT 09/M03 A3038 RMK A01 T00891028  RH  044%=      5-min Rain = 0
KTH1 141654Z 02013KT 09/M03 A3038 RMK A01 T00891029  RH  043%=      5-min Rain = 0
KTH1 141655Z 02015KT 09/M03 A3038 RMK A01 T00871030  RH  044%=      5-min Rain = 0
KTH1 141656Z 02010KT 09/M03 A3038 RMK A01 T00851029  RH  044%=      5-min Rain = 0
KTH1 141657Z 03012G18KT 09/M03 A3038 RMK A01 T00861026  RH  045%=      5-min Rain = 0
KTH1 141658Z 04011KT 09/M03 A3038 RMK A01 T00871025  RH  045%=      5-min Rain = 0
KTH1 141659Z 05013G18KT 09/M03 A3038 RMK A01 T00891026  RH  045%=      5-min Rain = 0
KTH1 141700Z 05012KT 09/M02 A3038 RMK A01 T00891024  RH  045%=      5-min Rain = 0
KTH1 141701Z 05012G18KT 09/M02 A3038 RMK A01 T00901024  RH  045%=      5-min Rain = 0
KTH1 141702Z 06013KT 09/M02 A3039 RMK A01 T00891024  RH  045%=      5-min Rain = 0
KTH1 141703Z 06010G15KT 09/M02 A3038 RMK A01 T00901022  RH  045%=      5-min Rain = 0
KTH1 141704Z 02011G18KT 09/M02 A3039 RMK A01 T00921019  RH  046%=      5-min Rain = 0
KTH1 141705Z 03012KT 09/M02 A3038 RMK A01 T00921018  RH  046%=      5-min Rain = 0
KTH1 141706Z 04012G17KT 09/M02 A3039 RMK A01 T00911018  RH  046%=      5-min Rain = 0
KTH1 141707Z 04010KT 09/M02 A3038 RMK A01 T00911016  RH  047%=      5-min Rain = 0
KTH1 141708Z 05009KT 09/M02 A3038 RMK A01 T00911015  RH  048%=      5-min Rain = 0
KTH1 141709Z 03008G13KT 09/M01 A3039 RMK A01 T00941011  RH  048%=      5-min Rain = 0
KTH1 141710Z 04009G14KT 10/M01 A3039 RMK A01 T00971012  RH  047%=      5-min Rain = 0
KTH1 141711Z 04009KT 10/M01 A3039 RMK A01 T00981013  RH  046%=      5-min Rain = 0
KTH1 141712Z 04012KT 10/M01 A3039 RMK A01 T00981013  RH  046%=      5-min Rain = 0
KTH1 141713Z 05010KT 10/M01 A3039 RMK A01 T00961014  RH  046%=      5-min Rain = 0
KTH1 141714Z 04010KT 09/M01 A3039 RMK A01 T00941013  RH  047%=      5-min Rain = 0
KTH1 141715Z 02009G15KT 10/M01 A3039 RMK A01 T00961012  RH  047%=      5-min Rain = 0
KTH1 141716Z 02010G16KT 10/M01 A3039 RMK A01 T00961013  RH  047%=      5-min Rain = 0
KTH1 141717Z 02011KT 10/M01 A3039 RMK A01 T00961011  RH  047%=      5-min Rain = 0
KTH1 141718Z 03011G17KT 10/M01 A3039 RMK A01 T00961012  RH  047%=      5-min Rain = 0
KTH1 141719Z 04010G15KT 10/M01 A3039 RMK A01 T00951011  RH  047%=      5-min Rain = 0
KTH1 141720Z 04012KT 10/M01 A3039 RMK A01 T00951009  RH  048%=      5-min Rain = 0
KTH1 141721Z 05014KT 09/M01 A3039 RMK A01 T00941011  RH  048%=      5-min Rain = 0
KTH1 141722Z 05013KT 09/M01 A3039 RMK A01 T00921011  RH  049%=      5-min Rain = 0
KTH1 141723Z 05012KT 09/M01 A3039 RMK A01 T00921009  RH  049%=      5-min Rain = 0
KTH1 141724Z 04011KT 09/M01 A3039 RMK A01 T00931009  RH  049%=      5-min Rain = 0
KTH1 141725Z 05013KT 09/M01 A3039 RMK A01 T00931007  RH  049%=      5-min Rain = 0
KTH1 141726Z 06012KT 10/M01 A3039 RMK A01 T00951005  RH  050%=      5-min Rain = 0
KTH1 141727Z 06010G15KT 10/M01 A3039 RMK A01 T00971005  RH  049%=      5-min Rain = 0
KTH1 141728Z 06008KT 10/M00 A3039 RMK A01 T00991004  RH  049%=      5-min Rain = 0
KTH1 141729Z 06008KT 10/M00 A3039 RMK A01 T01011004  RH  048%=      5-min Rain = 0
KTH1 141730Z 05008KT 10/M01 A3039 RMK A01 T01021005  RH  048%=      5-min Rain = 0
KTH1 141731Z 06007KT 10/M00 A3039 RMK A01 T01031003  RH  048%=      5-min Rain = 0
KTH1 141732Z 04008KT 11/M00 A3039 RMK A01 T01051004  RH  047%=      5-min Rain = 0
KTH1 141733Z 03006KT 10/M01 A3039 RMK A01 T01041006  RH  046%=      5-min Rain = 0
KTH1 141734Z 02007KT 10/M01 A3039 RMK A01 T01031007  RH  047%=      5-min Rain = 0
KTH1 141735Z 02009KT 10/M01 A3039 RMK A01 T01021008  RH  046%=      5-min Rain = 0
KTH1 141736Z 02006G11KT 10/M01 A3038 RMK A01 T01011007  RH  047%=      5-min Rain = 0
KTH1 141737Z 02008KT 10/M00 A3038 RMK A01 T01021004  RH  048%=      5-min Rain = 0
KTH1 141738Z 02008KT 10/M00 A3038 RMK A01 T01041003  RH  048%=      5-min Rain = 0
KTH1 141739Z 06009G14KT 11/M00 A3038 RMK A01 T01051002  RH  048%=      5-min Rain = 0
KTH1 141740Z 04008KT 11/00 A3038 RMK A01 T010700-0  RH  048%=      5-min Rain = 0
KTH1 141741Z 04012KT 11/M00 A3038 RMK A01 T01071001  RH  047%=      5-min Rain = 0
KTH1 141742Z 05011KT 11/M00 A3038 RMK A01 T01051002  RH  047%=      5-min Rain = 0
KTH1 141743Z 04011KT 10/M00 A3038 RMK A01 T01021003  RH  048%=      5-min Rain = 0
KTH1 141744Z 05009KT 10/M00 A3038 RMK A01 T01001001  RH  049%=      5-min Rain = 0
KTH1 141745Z 05010KT 10/00 A3038 RMK A01 T01030002  RH  050%=      5-min Rain = 0
KTH1 141746Z 04008KT 10/00 A3038 RMK A01 T01030000  RH  049%=      5-min Rain = 0
KTH1 141747Z 06010KT 11/00 A3038 RMK A01 T01050002  RH  049%=      5-min Rain = 0
KTH1 141748Z 06012KT 11/00 A3038 RMK A01 T01060000  RH  048%=      5-min Rain = 0
KTH1 141749Z 06010KT 11/00 A3038 RMK A01 T01050001  RH  048%=      5-min Rain = 0
KTH1 141750Z 05009KT 11/M00 A3038 RMK A01 T01051001  RH  048%=      5-min Rain = 0
KTH1 141751Z 04009KT 10/M00 A3038 RMK A01 T01041001  RH  048%=      5-min Rain = 0
KTH1 141752Z 05008KT 10/00 A3038 RMK A01 T010400-0  RH  048%=      5-min Rain = 0
KTH1 141753Z 06009KT 11/00 A3038 RMK A01 T01050002  RH  049%=      5-min Rain = 0
KTH1 141754Z 06008KT 11/00 A3038 RMK A01 T01070001  RH  048%=      5-min Rain = 0
KTH1 141755Z 06011KT 11/00 A3038 RMK A01 T01080002  RH  048%=      5-min Rain = 0
KTH1 141756Z 05011KT 11/00 A3038 RMK A01 T01090001  RH  047%=      5-min Rain = 0
KTH1 141757Z 04011KT 11/00 A3038 RMK A01 T010700-0  RH  047%=      5-min Rain = 0
KTH1 141758Z 04008KT 10/M00 A3038 RMK A01 T01041001  RH  048%=      5-min Rain = 0
KTH1 141759Z 03007KT 10/M00 A3037 RMK A01 T01031001  RH  049%=      5-min Rain = 0
KTH1 141800Z 07010KT 10/00 A3037 RMK A01 T01040001  RH  049%=      5-min Rain = 0
KTH1 141801Z 06007KT 11/00 A3037 RMK A01 T01050003  RH  049%=      5-min Rain = 0
KTH1 141802Z 05007KT 11/00 A3037 RMK A01 T01060002  RH  048%=      5-min Rain = 0
KTH1 141803Z 04006KT 11/00 A3037 RMK A01 T01090004  RH  049%=      5-min Rain = 0
KTH1 141804Z 05010KT 11/01 A3037 RMK A01 T01120005  RH  048%=      5-min Rain = 0
KTH1 141805Z 05010KT 11/00 A3037 RMK A01 T01130003  RH  047%=      5-min Rain = 0
KTH1 141806Z 04009KT 11/00 A3037 RMK A01 T01120002  RH  047%=      5-min Rain = 0
KTH1 141807Z 03009KT 11/00 A3037 RMK A01 T01110003  RH  047%=      5-min Rain = 0
KTH1 141808Z 03009G14KT 11/00 A3037 RMK A01 T01110001  RH  047%=      5-min Rain = 0
KTH1 141809Z 03005KT 11/00 A3037 RMK A01 T01100002  RH  047%=      5-min Rain = 0
KTH1 141810Z 06004KT 11/01 A3037 RMK A01 T01110005  RH  048%=      5-min Rain = 0
KTH1 141811Z 06009KT 12/01 A3037 RMK A01 T01160005  RH  047%=      5-min Rain = 0
KTH1 141812Z 05010KT 12/00 A3037 RMK A01 T01150000  RH  045%=      5-min Rain = 0
KTH1 141813Z 06008KT 11/00 A3037 RMK A01 T01130002  RH  046%=      5-min Rain = 0
KTH1 141814Z 05009KT 11/00 A3037 RMK A01 T01140003  RH  046%=      5-min Rain = 0
KTH1 141815Z 05008KT 12/00 A3037 RMK A01 T01160003  RH  046%=      5-min Rain = 0
KTH1 141816Z 03008KT 12/00 A3037 RMK A01 T01160002  RH  045%=      5-min Rain = 0
KTH1 141817Z 03012KT 12/00 A3037 RMK A01 T01150001  RH  045%=      5-min Rain = 0
KTH1 141818Z 05009KT 11/00 A3037 RMK A01 T01140001  RH  046%=      5-min Rain = 0
KTH1 141819Z 04005KT 12/00 A3037 RMK A01 T01150002  RH  046%=      5-min Rain = 0
KTH1 141820Z 04005KT 12/00 A3037 RMK A01 T01160003  RH  046%=      5-min Rain = 0
KTH1 141821Z 04008KT 12/00 A3037 RMK A01 T01180004  RH  046%=      5-min Rain = 0
KTH1 141822Z 06010KT 12/00 A3037 RMK A01 T01180003  RH  045%=      5-min Rain = 0
KTH1 141823Z 04006G11KT 12/00 A3037 RMK A01 T01180003  RH  045%=      5-min Rain = 0
KTH1 141824Z 05010KT 12/00 A3036 RMK A01 T01180004  RH  046%=      5-min Rain = 0
KTH1 141825Z 02009KT 12/00 A3036 RMK A01 T01180003  RH  045%=      5-min Rain = 0
KTH1 141826Z 04008KT 12/00 A3036 RMK A01 T01180003  RH  045%=      5-min Rain = 0
KTH1 141827Z 04010KT 12/00 A3036 RMK A01 T01180003  RH  045%=      5-min Rain = 0
KTH1 141828Z 04009G14KT 12/00 A3036 RMK A01 T01170001  RH  045%=      5-min Rain = 0
KTH1 141829Z 03008KT 12/00 A3036 RMK A01 T01160002  RH  045%=      5-min Rain = 0
KTH1 141830Z 02011KT 12/00 A3036 RMK A01 T01150001  RH  045%=      5-min Rain = 0
KTH1 141831Z 02009KT 12/00 A3036 RMK A01 T01150001  RH  045%=      5-min Rain = 0
KTH1 141832Z 03009KT 12/00 A3036 RMK A01 T01160003  RH  046%=      5-min Rain = 0
KTH1 141833Z 03009KT 12/00 A3036 RMK A01 T01170002  RH  045%=      5-min Rain = 0
KTH1 141834Z 04009KT 12/00 A3036 RMK A01 T01170002  RH  045%=      5-min Rain = 0
KTH1 141835Z 05008KT 12/00 A3036 RMK A01 T01170003  RH  046%=      5-min Rain = 0
KTH1 141836Z 06011KT 12/01 A3036 RMK A01 T01190006  RH  046%=      5-min Rain = 0
KTH1 141837Z 05012KT 12/00 A3036 RMK A01 T01200004  RH  045%=      5-min Rain = 0
KTH1 141838Z 05012KT 12/00 A3036 RMK A01 T01200004  RH  045%=      5-min Rain = 0
KTH1 141839Z 05010KT 12/01 A3036 RMK A01 T01200006  RH  045%=      5-min Rain = 0
KTH1 141840Z 05008KT 12/01 A3036 RMK A01 T01220006  RH  045%=      5-min Rain = 0
KTH1 141841Z 04011G16KT 12/01 A3036 RMK A01 T01240008  RH  045%=      5-min Rain = 0
KTH1 141842Z 04009KT 12/01 A3036 RMK A01 T01240005  RH  044%=      5-min Rain = 0
KTH1 141843Z 03008KT 12/01 A3036 RMK A01 T01230005  RH  045%=      5-min Rain = 0
KTH1 141844Z 04008KT 12/01 A3036 RMK A01 T01230005  RH  044%=      5-min Rain = 0
KTH1 141845Z 04006KT 12/01 A3036 RMK A01 T01240008  RH  045%=      5-min Rain = 0
KTH1 141846Z 04009KT 13/01 A3036 RMK A01 T01270008  RH  044%=      5-min Rain = 0
KTH1 141847Z 03010KT 13/01 A3036 RMK A01 T01260005  RH  043%=      5-min Rain = 0
KTH1 141848Z 05012KT 12/00 A3036 RMK A01 T01220003  RH  044%=      5-min Rain = 0
KTH1 141849Z 06008KT 12/01 A3035 RMK A01 T01200005  RH  045%=      5-min Rain = 0
KTH1 141850Z 06009KT 12/01 A3035 RMK A01 T01220007  RH  045%=      5-min Rain = 0
KTH1 141851Z 06011KT 12/01 A3035 RMK A01 T01240006  RH  045%=      5-min Rain = 0
KTH1 141852Z 05008G13KT 12/01 A3035 RMK A01 T01230005  RH  044%=      5-min Rain = 0
KTH1 141853Z 05010KT 12/01 A3035 RMK A01 T01230006  RH  045%=      5-min Rain = 0
KTH1 141854Z 04011KT 12/01 A3035 RMK A01 T01240006  RH  045%=      5-min Rain = 0
KTH1 141855Z 05010G15KT 12/01 A3035 RMK A01 T01240005  RH  044%=      5-min Rain = 0
KTH1 141856Z 06012KT 12/01 A3035 RMK A01 T01230005  RH  044%=      5-min Rain = 0
KTH1 141857Z 06010KT 12/01 A3035 RMK A01 T01240006  RH  045%=      5-min Rain = 0
KTH1 141858Z 06009KT 12/01 A3035 RMK A01 T01230005  RH  044%=      5-min Rain = 0
KTH1 141859Z 05008KT 12/01 A3035 RMK A01 T01230006  RH  045%=      5-min Rain = 0
KTH1 141900Z 05007KT 12/01 A3035 RMK A01 T01240007  RH  045%=      5-min Rain = 0
KTH1 141901Z 03004KT 13/01 A3035 RMK A01 T01270009  RH  044%=      5-min Rain = 0
KTH1 141902Z 02005KT 13/01 A3035 RMK A01 T01290007  RH  043%=      5-min Rain = 0
KTH1 141903Z 02009KT 13/01 A3035 RMK A01 T01300006  RH  043%=      5-min Rain = 0
KTH1 141904Z 02008KT 13/01 A3035 RMK A01 T01290005  RH  043%=      5-min Rain = 0
KTH1 141905Z 03008KT 13/01 A3035 RMK A01 T01280006  RH  043%=      5-min Rain = 0
KTH1 141906Z 04008KT 13/01 A3035 RMK A01 T01290007  RH  043%=      5-min Rain = 0
KTH1 141907Z 04007KT 13/01 A3035 RMK A01 T01310008  RH  043%=      5-min Rain = 0
KTH1 141908Z 03007KT 13/01 A3035 RMK A01 T01330006  RH  042%=      5-min Rain = 0
KTH1 141909Z 05009KT 13/01 A3034 RMK A01 T01340005  RH  041%=      5-min Rain = 0
KTH1 141910Z 05011KT 13/01 A3034 RMK A01 T01330005  RH  041%=      5-min Rain = 0
KTH1 141911Z 05008KT 13/01 A3034 RMK A01 T01320005  RH  042%=      5-min Rain = 0
KTH1 141912Z 03010G15KT 13/00 A3034 RMK A01 T01330003  RH  041%=      5-min Rain = 0
KTH1 141913Z 04008KT 13/00 A3034 RMK A01 T01310001  RH  041%=      5-min Rain = 0
KTH1 141914Z 02010G15KT 13/00 A3034 RMK A01 T01310002  RH  041%=      5-min Rain = 0
KTH1 141915Z 02008KT 13/00 A3034 RMK A01 T01320001  RH  041%=      5-min Rain = 0
KTH1 141916Z 02012KT 13/M00 A3034 RMK A01 T01321001  RH  040%=      5-min Rain = 0
KTH1 141917Z 01008G13KT 13/00 A3034 RMK A01 T013100-0  RH  041%=      5-min Rain = 0
KTH1 141918Z 03010G15KT 13/00 A3034 RMK A01 T01310000  RH  041%=      5-min Rain = 0
KTH1 141919Z 03010G15KT 13/M00 A3034 RMK A01 T01301001  RH  040%=      5-min Rain = 0
KTH1 141920Z 03013G18KT 13/M00 A3034 RMK A01 T01291001  RH  041%=      5-min Rain = 0
KTH1 141921Z 01011KT 13/M00 A3034 RMK A01 T01291001  RH  041%=      5-min Rain = 0
KTH1 141922Z 00009KT 13/M00 A3034 RMK A01 T01281001  RH  041%=      5-min Rain = 0
KTH1 141923Z 02012KT 13/M00 A3034 RMK A01 T01281001  RH  041%=      5-min Rain = 0
KTH1 141924Z 02010G15KT 13/M00 A3034 RMK A01 T01281001  RH  041%=      5-min Rain = 0
KTH1 141925Z 05007KT 13/00 A3034 RMK A01 T01300001  RH  041%=      5-min Rain = 0
KTH1 141926Z 05008KT 13/00 A3034 RMK A01 T01340003  RH  041%=      5-min Rain = 0
KTH1 141927Z 05008KT 14/00 A3034 RMK A01 T01360003  RH  040%=      5-min Rain = 0
KTH1 141928Z 04008KT 14/00 A3034 RMK A01 T01370002  RH  039%=      5-min Rain = 0
KTH1 141929Z 02011KT 14/00 A3034 RMK A01 T01370000  RH  039%=      5-min Rain = 0
KTH1 141930Z 03010KT 14/M00 A3034 RMK A01 T01351001  RH  039%=      5-min Rain = 0
KTH1 141931Z 04012G17KT 13/M00 A3034 RMK A01 T01341001  RH  040%=      5-min Rain = 0
KTH1 141932Z 03013KT 13/M00 A3034 RMK A01 T01331003  RH  039%=      5-min Rain = 0
KTH1 141933Z 03011G16KT 13/M00 A3034 RMK A01 T01311004  RH  039%=      5-min Rain = 0
KTH1 141934Z 05010KT 13/M00 A3034 RMK A01 T01301004  RH  040%=      5-min Rain = 0
KTH1 141935Z 04011G18KT 13/M00 A3034 RMK A01 T01301003  RH  040%=      5-min Rain = 0
KTH1 141936Z 04013KT 13/M00 A3034 RMK A01 T01301003  RH  040%=      5-min Rain = 0
KTH1 141937Z 04012KT 13/M00 A3034 RMK A01 T01301002  RH  040%=      5-min Rain = 0
KTH1 141938Z 04009KT 13/M00 A3034 RMK A01 T01311002  RH  040%=      5-min Rain = 0
KTH1 141939Z 04008KT 13/M00 A3034 RMK A01 T01321001  RH  040%=      5-min Rain = 0
KTH1 141940Z 03006KT 13/M00 A3034 RMK A01 T01321001  RH  040%=      5-min Rain = 0
KTH1 141941Z 03010G17KT 13/00 A3034 RMK A01 T01340000  RH  040%=      5-min Rain = 0
KTH1 141942Z 03012KT 13/M00 A3034 RMK A01 T01341001  RH  039%=      5-min Rain = 0
KTH1 141943Z 02007G13KT 13/M00 A3034 RMK A01 T01341001  RH  040%=      5-min Rain = 0
KTH1 141944Z 02007G12KT 13/00 A3034 RMK A01 T013400-0  RH  040%=      5-min Rain = 0
KTH1 141945Z 02008KT 14/00 A3034 RMK A01 T01360001  RH  040%=      5-min Rain = 0
KTH1 141946Z 00009G16KT 14/00 A3034 RMK A01 T01370001  RH  039%=      5-min Rain = 0
KTH1 141947Z 01011KT 14/M00 A3034 RMK A01 T01351001  RH  039%=      5-min Rain = 0
KTH1 141948Z 00011G16KT 13/M00 A3034 RMK A01 T01331001  RH  040%=      5-min Rain = 0
KTH1 141949Z 00008KT 13/M00 A3033 RMK A01 T01321001  RH  040%=      5-min Rain = 0
KTH1 141950Z 04010G17KT 13/00 A3034 RMK A01 T01320001  RH  041%=      5-min Rain = 0
KTH1 141951Z 05014KT 13/M00 A3034 RMK A01 T01331001  RH  040%=      5-min Rain = 0
KTH1 141952Z 04009KT 13/M00 A3034 RMK A01 T01331001  RH  040%=      5-min Rain = 0
KTH1 141953Z 04011KT 13/M00 A3034 RMK A01 T01331002  RH  040%=      5-min Rain = 0
KTH1 141954Z 01011KT 13/M00 A3034 RMK A01 T01311003  RH  040%=      5-min Rain = 0
KTH1 141955Z 02008G13KT 13/M00 A3034 RMK A01 T01301001  RH  040%=      5-min Rain = 0
KTH1 141956Z 01009KT 13/M00 A3033 RMK A01 T01291001  RH  041%=      5-min Rain = 0
KTH1 141957Z 03007G13KT 13/00 A3033 RMK A01 T01310001  RH  041%=      5-min Rain = 0
KTH1 141958Z 02008G14KT 13/00 A3033 RMK A01 T01340003  RH  041%=      5-min Rain = 0
KTH1 141959Z 01011G18KT 14/00 A3033 RMK A01 T01360002  RH  040%=      5-min Rain = 0
KTH1 142000Z 03009KT 14/00 A3033 RMK A01 T01350001  RH  040%=      5-min Rain = 0
KTH1 142001Z 01008G13KT 13/00 A3033 RMK A01 T013300-0  RH  040%=      5-min Rain = 0
KTH1 142002Z 03010G15KT 13/00 A3033 RMK A01 T01330001  RH  040%=      5-min Rain = 0
KTH1 142003Z 03012KT 13/00 A3033 RMK A01 T013300-0  RH  040%=      5-min Rain = 0
KTH1 142004Z 01011G16KT 13/M00 A3033 RMK A01 T01311002  RH  040%=      5-min Rain = 0
KTH1 142005Z 02012KT 13/M00 A3033 RMK A01 T01291002  RH  040%=      5-min Rain = 0
KTH1 142006Z 02012KT 13/M00 A3033 RMK A01 T01291003  RH  040%=      5-min Rain = 0
KTH1 142007Z 02011KT 13/M00 A3033 RMK A01 T01271002  RH  041%=      5-min Rain = 0
KTH1 142008Z 03008KT 13/M00 A3033 RMK A01 T01271002  RH  041%=      5-min Rain = 0
KTH1 142009Z 02009KT 13/00 A3033 RMK A01 T01290000  RH  041%=      5-min Rain = 0
KTH1 142010Z 02011G16KT 13/M00 A3033 RMK A01 T01301001  RH  041%=      5-min Rain = 0
KTH1 142011Z 01010KT 13/M00 A3033 RMK A01 T01291002  RH  040%=      5-min Rain = 0
KTH1 142012Z 01009KT 13/M00 A3033 RMK A01 T01291001  RH  041%=      5-min Rain = 0
KTH1 142013Z 02011G18KT 13/00 A3033 RMK A01 T01300000  RH  041%=      5-min Rain = 0
KTH1 142014Z 02012KT 13/00 A3033 RMK A01 T01320001  RH  040%=      5-min Rain = 0
KTH1 142015Z 02011KT 13/00 A3033 RMK A01 T013200-0  RH  040%=      5-min Rain = 0
KTH1 142016Z 01009KT 13/00 A3033 RMK A01 T01330001  RH  040%=      5-min Rain = 0
KTH1 142017Z 01009KT 13/00 A3033 RMK A01 T013400-0  RH  040%=      5-min Rain = 0
KTH1 142018Z 02009KT 13/M00 A3033 RMK A01 T01321002  RH  040%=      5-min Rain = 0
KTH1 142019Z 03010KT 13/M00 A3033 RMK A01 T01311002  RH  040%=      5-min Rain = 0
KTH1 142020Z 01009G14KT 13/M00 A3033 RMK A01 T01311001  RH  040%=      5-min Rain = 0
KTH1 142021Z 01010KT 13/M00 A3033 RMK A01 T01311002  RH  040%=      5-min Rain = 0
KTH1 142022Z 00012KT 13/M00 A3033 RMK A01 T01311003  RH  040%=      5-min Rain = 0
KTH1 142023Z 01011KT 13/M00 A3033 RMK A01 T01291004  RH  040%=      5-min Rain = 0
KTH1 142024Z 00011G17KT 13/M00 A3033 RMK A01 T01281003  RH  040%=      5-min Rain = 0
KTH1 142025Z 35012KT 13/M00 A3033 RMK A01 T01291002  RH  041%=      5-min Rain = 0
KTH1 142026Z 01013KT 13/M00 A3033 RMK A01 T01301002  RH  040%=      5-min Rain = 0
KTH1 142027Z 01010G17KT 13/M00 A3033 RMK A01 T01301003  RH  040%=      5-min Rain = 0
KTH1 142028Z 02010KT 13/M00 A3033 RMK A01 T01301002  RH  040%=      5-min Rain = 0
KTH1 142029Z 03008KT 13/M00 A3033 RMK A01 T01301002  RH  040%=      5-min Rain = 0
KTH1 142030Z 03007KT 13/00 A3033 RMK A01 T01310000  RH  041%=      5-min Rain = 0
KTH1 142031Z 04007KT 13/00 A3033 RMK A01 T013300-0  RH  040%=      5-min Rain = 0
KTH1 142032Z 04007KT 14/00 A3033 RMK A01 T01350001  RH  040%=      5-min Rain = 0
KTH1 142033Z 05008G13KT 14/00 A3033 RMK A01 T01360001  RH  040%=      5-min Rain = 0
KTH1 142034Z 05012KT 14/00 A3033 RMK A01 T01360001  RH  040%=      5-min Rain = 0
KTH1 142035Z 05012KT 14/M00 A3033 RMK A01 T01361001  RH  039%=      5-min Rain = 0
KTH1 142036Z 04008KT 13/M00 A3033 RMK A01 T01331001  RH  040%=      5-min Rain = 0
KTH1 142037Z 04008KT 13/00 A3033 RMK A01 T013300-0  RH  040%=      5-min Rain = 0
KTH1 142038Z 01010KT 13/M00 A3033 RMK A01 T01331001  RH  040%=      5-min Rain = 0
KTH1 142039Z 03011G17KT 13/M00 A3033 RMK A01 T01331001  RH  040%=      5-min Rain = 0
KTH1 142040Z 04013G18KT 13/M00 A3033 RMK A01 T01331003  RH  039%=      5-min Rain = 0
KTH1 142041Z 04011KT 13/M00 A3033 RMK A01 T01311002  RH  040%=      5-min Rain = 0
KTH1 142042Z 05014KT 13/M00 A3033 RMK A01 T01321002  RH  040%=      5-min Rain = 0
KTH1 142043Z 04010G15KT 13/M00 A3033 RMK A01 T01321002  RH  040%=      5-min Rain = 0
KTH1 142044Z 04013KT 13/M00 A3033 RMK A01 T01321001  RH  040%=      5-min Rain = 0
KTH1 142045Z 03012KT 13/M00 A3033 RMK A01 T01321002  RH  040%=      5-min Rain = 0
KTH1 142046Z 03009KT 13/M00 A3033 RMK A01 T01311002  RH  040%=      5-min Rain = 0
KTH1 142047Z 02011KT 13/M00 A3033 RMK A01 T01331001  RH  040%=      5-min Rain = 0
KTH1 142048Z 02007KT 13/M00 A3033 RMK A01 T01321002  RH  040%=      5-min Rain = 0
KTH1 142049Z 02007KT 13/M00 A3033 RMK A01 T01331001  RH  040%=      5-min Rain = 0
KTH1 142050Z 03007KT 13/M00 A3033 RMK A01 T01341001  RH  040%=      5-min Rain = 0
KTH1 142051Z 03008KT 13/M00 A3033 RMK A01 T01341001  RH  039%=      5-min Rain = 0
KTH1 142052Z 03010KT 13/M00 A3033 RMK A01 T01341001  RH  039%=      5-min Rain = 0
KTH1 142053Z 04012KT 13/M00 A3033 RMK A01 T01341003  RH  039%=      5-min Rain = 0
KTH1 142054Z 05009G14KT 13/M00 A3033 RMK A01 T01321003  RH  039%=      5-min Rain = 0
KTH1 142055Z 05010KT 13/M00 A3033 RMK A01 T01321003  RH  040%=      5-min Rain = 0
KTH1 142056Z 04011KT 13/M00 A3033 RMK A01 T01331002  RH  039%=      5-min Rain = 0
KTH1 142057Z 00010KT 13/M00 A3033 RMK A01 T01341003  RH  039%=      5-min Rain = 0
KTH1 142058Z 01009KT 14/M00 A3033 RMK A01 T01351003  RH  039%=      5-min Rain = 0
KTH1 142059Z 02006KT 14/M00 A3033 RMK A01 T01351003  RH  039%=      5-min Rain = 0
KTH1 142100Z 03012G17KT 14/M00 A3033 RMK A01 T01351003  RH  039%=      5-min Rain = 0
KTH1 142101Z 00010G16KT 13/M01 A3033 RMK A01 T01331005  RH  039%=      5-min Rain = 0
KTH1 142102Z 01011KT 13/M00 A3033 RMK A01 T01321004  RH  039%=      5-min Rain = 0
KTH1 142103Z 02010G15KT 13/M00 A3033 RMK A01 T01321004  RH  039%=      5-min Rain = 0
KTH1 142104Z 02012KT 13/M01 A3033 RMK A01 T01331005  RH  039%=      5-min Rain = 0
KTH1 142105Z 01011KT 13/M01 A3033 RMK A01 T01321006  RH  038%=      5-min Rain = 0
KTH1 142106Z 02012G17KT 13/M01 A3033 RMK A01 T01321005  RH  039%=      5-min Rain = 0
KTH1 142107Z 02013KT 13/M01 A3033 RMK A01 T01311006  RH  039%=      5-min Rain = 0
KTH1 142108Z 00009G14KT 13/M01 A3033 RMK A01 T01301005  RH  039%=      5-min Rain = 0
KTH1 142109Z 01008KT 13/M01 A3033 RMK A01 T01301005  RH  039%=      5-min Rain = 0
KTH1 142110Z 02010KT 13/M00 A3033 RMK A01 T01311004  RH  039%=      5-min Rain = 0
KTH1 142111Z 01006G11KT 13/M00 A3033 RMK A01 T01321004  RH  039%=      5-min Rain = 0
KTH1 142112Z 01008G14KT 13/M00 A3033 RMK A01 T01341002  RH  039%=      5-min Rain = 0
KTH1 142113Z 01010KT 14/M00 A3033 RMK A01 T01351004  RH  038%=      5-min Rain = 0
KTH1 142114Z 02012G17KT 13/M01 A3033 RMK A01 T01341005  RH  038%=      5-min Rain = 0
KTH1 142115Z 01010KT 13/M01 A3033 RMK A01 T01321006  RH  039%=      5-min Rain = 0
KTH1 142116Z 35010G15KT 13/M00 A3033 RMK A01 T01311004  RH  039%=      5-min Rain = 0
KTH1 142117Z 36009KT 13/M00 A3033 RMK A01 T01311003  RH  040%=      5-min Rain = 0
KTH1 142118Z 02007G13KT 13/M00 A3033 RMK A01 T01301003  RH  040%=      5-min Rain = 0
KTH1 142119Z 05009KT 13/M00 A3033 RMK A01 T01311002  RH  040%=      5-min Rain = 0
KTH1 142120Z 03012KT 13/M00 A3033 RMK A01 T01331002  RH  040%=      5-min Rain = 0
KTH1 142121Z 03011KT 13/M00 A3033 RMK A01 T01331003  RH  039%=      5-min Rain = 0
KTH1 142122Z 01010KT 13/M00 A3033 RMK A01 T01321003  RH  039%=      5-min Rain = 0
KTH1 142123Z 03009KT 13/M00 A3033 RMK A01 T01321003  RH  039%=      5-min Rain = 0
KTH1 142124Z 02009KT 13/M00 A3033 RMK A01 T01311003  RH  040%=      5-min Rain = 0
KTH1 142125Z 36009G14KT 13/M00 A3033 RMK A01 T01321002  RH  040%=      5-min Rain = 0
KTH1 142126Z 02006G12KT 13/M00 A3033 RMK A01 T01331001  RH  040%=      5-min Rain = 0
KTH1 142127Z 02009KT 13/M00 A3033 RMK A01 T01331002  RH  039%=      5-min Rain = 0
KTH1 142128Z 02010G15KT 13/M00 A3033 RMK A01 T01321003  RH  040%=      5-min Rain = 0
KTH1 142129Z 01012KT 13/M00 A3033 RMK A01 T01311003  RH  040%=      5-min Rain = 0
KTH1 142130Z 03009KT 13/M00 A3033 RMK A01 T01301004  RH  040%=      5-min Rain = 0
KTH1 142131Z 03007KT 13/M00 A3033 RMK A01 T01301002  RH  040%=      5-min Rain = 0
KTH1 142132Z 03009KT 13/M00 A3033 RMK A01 T01321002  RH  040%=      5-min Rain = 0
KTH1 142133Z 04008KT 13/M00 A3033 RMK A01 T01321003  RH  039%=      5-min Rain = 0
KTH1 142134Z 04007KT 13/M00 A3033 RMK A01 T01321002  RH  040%=      5-min Rain = 0
KTH1 142135Z 02012KT 13/M00 A3034 RMK A01 T01331002  RH  039%=      5-min Rain = 0
KTH1 142136Z 01009KT 13/M00 A3034 RMK A01 T01321003  RH  039%=      5-min Rain = 0
KTH1 142137Z 02010KT 13/M00 A3034 RMK A01 T01311003  RH  040%=      5-min Rain = 0
KTH1 142138Z 02010KT 13/M00 A3034 RMK A01 T01311003  RH  040%=      5-min Rain = 0
KTH1 142139Z 02007KT 13/M00 A3034 RMK A01 T01301003  RH  040%=      5-min Rain = 0
KTH1 142140Z 02008KT 13/M00 A3034 RMK A01 T01291003  RH  040%=      5-min Rain = 0
KTH1 142141Z 04010KT 13/M00 A3034 RMK A01 T01291002  RH  040%=      5-min Rain = 0
KTH1 142142Z 02010KT 13/M00 A3034 RMK A01 T01311001  RH  040%=      5-min Rain = 0
KTH1 142143Z 03009KT 13/M00 A3034 RMK A01 T01321002  RH  040%=      5-min Rain = 0
KTH1 142144Z 03008KT 13/M00 A3034 RMK A01 T01321002  RH  040%=      5-min Rain = 0
KTH1 142145Z 02012KT 13/M00 A3034 RMK A01 T01331002  RH  039%=      5-min Rain = 0
KTH1 142146Z 04010KT 13/M00 A3034 RMK A01 T01321003  RH  039%=      5-min Rain = 0
KTH1 142147Z 02011KT 13/M00 A3034 RMK A01 T01311003  RH  040%=      5-min Rain = 0
KTH1 142148Z 03009KT 13/M00 A3034 RMK A01 T01301004  RH  040%=      5-min Rain = 0
KTH1 142149Z 04007KT 13/M00 A3034 RMK A01 T01291004  RH  040%=      5-min Rain = 0
KTH1 142150Z 03007KT 13/M00 A3034 RMK A01 T01291003  RH  040%=      5-min Rain = 0
KTH1 142151Z 04008KT 13/M00 A3034 RMK A01 T01301003  RH  040%=      5-min Rain = 0
KTH1 142152Z 02009KT 13/M00 A3034 RMK A01 T01311002  RH  040%=      5-min Rain = 0
KTH1 142153Z 02008KT 13/M00 A3034 RMK A01 T01321002  RH  040%=      5-min Rain = 0
KTH1 142154Z 01009G14KT 13/M00 A3034 RMK A01 T01321002  RH  040%=      5-min Rain = 0
KTH1 142155Z 01009KT 13/M00 A3034 RMK A01 T01311004  RH  039%=      5-min Rain = 0
KTH1 142156Z 01012KT 13/M01 A3034 RMK A01 T01301005  RH  039%=      5-min Rain = 0
KTH1 142157Z 01010G17KT 13/M00 A3034 RMK A01 T01291004  RH  040%=      5-min Rain = 0
KTH1 142158Z 04010G16KT 13/M00 A3034 RMK A01 T01291003  RH  040%=      5-min Rain = 0
KTH1 142159Z 03012KT 13/M01 A3034 RMK A01 T01291005  RH  040%=      5-min Rain = 0
KTH1 142200Z 03009KT 13/M01 A3034 RMK A01 T01281005  RH  040%=      5-min Rain = 0
KTH1 142201Z 03010KT 13/M00 A3034 RMK A01 T01281004  RH  040%=      5-min Rain = 0
KTH1 142202Z 03009KT 13/M01 A3034 RMK A01 T01281005  RH  040%=      5-min Rain = 0
KTH1 142203Z 04005KT 13/M00 A3034 RMK A01 T01281004  RH  040%=      5-min Rain = 0
KTH1 142204Z 03004KT 13/M00 A3034 RMK A01 T01291002  RH  040%=      5-min Rain = 0
KTH1 142205Z 02006KT 13/M00 A3034 RMK A01 T01311002  RH  040%=      5-min Rain = 0
KTH1 142206Z 01007G15KT 13/M00 A3034 RMK A01 T01311002  RH  040%=      5-min Rain = 0
KTH1 142207Z 01012G17KT 13/M00 A3034 RMK A01 T01321003  RH  039%=      5-min Rain = 0
KTH1 142208Z 02008G13KT 13/M00 A3034 RMK A01 T01301004  RH  039%=      5-min Rain = 0
KTH1 142209Z 02009KT 13/M00 A3034 RMK A01 T01291004  RH  040%=      5-min Rain = 0
KTH1 142210Z 01012KT 13/M00 A3034 RMK A01 T01291004  RH  040%=      5-min Rain = 0
KTH1 142211Z 02009KT 13/M01 A3034 RMK A01 T01281005  RH  040%=      5-min Rain = 0
KTH1 142212Z 02008KT 13/M01 A3034 RMK A01 T01261006  RH  040%=      5-min Rain = 0
KTH1 142213Z 02009KT 13/M01 A3034 RMK A01 T01261005  RH  040%=      5-min Rain = 0
KTH1 142214Z 01009KT 13/M01 A3034 RMK A01 T01251006  RH  040%=      5-min Rain = 0
KTH1 142215Z 35008KT 13/M01 A3034 RMK A01 T01251005  RH  040%=      5-min Rain = 0
KTH1 142216Z 00010G15KT 13/M01 A3034 RMK A01 T01261005  RH  041%=      5-min Rain = 0
KTH1 142217Z 00008KT 13/M01 A3034 RMK A01 T01261005  RH  040%=      5-min Rain = 0
KTH1 142218Z 36009G14KT 13/M00 A3034 RMK A01 T01261004  RH  041%=      5-min Rain = 0
KTH1 142219Z 36009KT 13/M01 A3034 RMK A01 T01261005  RH  041%=      5-min Rain = 0
KTH1 142220Z 02009KT 13/M01 A3034 RMK A01 T01261005  RH  041%=      5-min Rain = 0
KTH1 142221Z 01010G15KT 13/M01 A3034 RMK A01 T01261005  RH  041%=      5-min Rain = 0
KTH1 142222Z 01009G14KT 13/M01 A3034 RMK A01 T01261006  RH  040%=      5-min Rain = 0
KTH1 142223Z 00010KT 13/M01 A3034 RMK A01 T01251007  RH  040%=      5-min Rain = 0
KTH1 142224Z 36010KT 12/M01 A3034 RMK A01 T01241008  RH  040%=      5-min Rain = 0
KTH1 142225Z 02008KT 12/M01 A3034 RMK A01 T01231007  RH  041%=      5-min Rain = 0
KTH1 142226Z 02011G16KT 12/M01 A3034 RMK A01 T01231006  RH  041%=      5-min Rain = 0
KTH1 142227Z 01009G15KT 12/M01 A3034 RMK A01 T01231007  RH  041%=      5-min Rain = 0
KTH1 142228Z 01010KT 12/M01 A3034 RMK A01 T01231006  RH  041%=      5-min Rain = 0
KTH1 142229Z 02012KT 12/M01 A3034 RMK A01 T01231006  RH  041%=      5-min Rain = 0
KTH1 142230Z 02008G13KT 12/M01 A3034 RMK A01 T01221007  RH  041%=      5-min Rain = 0
KTH1 142231Z 02008KT 12/M01 A3034 RMK A01 T01221007  RH  041%=      5-min Rain = 0
KTH1 142232Z 01008KT 12/M01 A3034 RMK A01 T01221006  RH  041%=      5-min Rain = 0
KTH1 142233Z 02009KT 12/M01 A3034 RMK A01 T01221007  RH  041%=      5-min Rain = 0
KTH1 142234Z 02011KT 12/M01 A3034 RMK A01 T01221006  RH  041%=      5-min Rain = 0
KTH1 142235Z 01010KT 12/M01 A3034 RMK A01 T01211007  RH  041%=      5-min Rain = 0
KTH1 142236Z 03011KT 12/M01 A3034 RMK A01 T01211007  RH  041%=      5-min Rain = 0
KTH1 142237Z 02012KT 12/M01 A3034 RMK A01 T01211007  RH  041%=      5-min Rain = 0
KTH1 142238Z 03007KT 12/M01 A3034 RMK A01 T01201007  RH  041%=      5-min Rain = 0
KTH1 142239Z 01007G12KT 12/M01 A3034 RMK A01 T01201006  RH  042%=      5-min Rain = 0
KTH1 142240Z 02009KT 12/M01 A3034 RMK A01 T01201006  RH  042%=      5-min Rain = 0
KTH1 142241Z 02009KT 12/M01 A3034 RMK A01 T01201007  RH  041%=      5-min Rain = 0
KTH1 142242Z 03008G13KT 12/M01 A3034 RMK A01 T01201006  RH  042%=      5-min Rain = 0
KTH1 142243Z 03008KT 12/M01 A3034 RMK A01 T01211006  RH  042%=      5-min Rain = 0
KTH1 142244Z 03008KT 12/M01 A3035 RMK A01 T01201006  RH  042%=      5-min Rain = 0
KTH1 142245Z 03008KT 12/M01 A3035 RMK A01 T01201007  RH  042%=      5-min Rain = 0
KTH1 142246Z 01007G13KT 12/M01 A3035 RMK A01 T01201006  RH  042%=      5-min Rain = 0
KTH1 142247Z 02009KT 12/M01 A3035 RMK A01 T01201006  RH  042%=      5-min Rain = 0
KTH1 142248Z 01009KT 12/M01 A3035 RMK A01 T01191007  RH  042%=      5-min Rain = 0
KTH1 142249Z 01009KT 12/M01 A3035 RMK A01 T01191007  RH  042%=      5-min Rain = 0
KTH1 142250Z 02009KT 12/M01 A3035 RMK A01 T01181007  RH  042%=      5-min Rain = 0
KTH1 142251Z 01010KT 12/M01 A3035 RMK A01 T01181008  RH  042%=      5-min Rain = 0
KTH1 142252Z 02008KT 12/M01 A3035 RMK A01 T01181008  RH  042%=      5-min Rain = 0
KTH1 142253Z 03007KT 12/M01 A3035 RMK A01 T01181007  RH  042%=      5-min Rain = 0
KTH1 142254Z 03009G14KT 12/M01 A3035 RMK A01 T01181007  RH  042%=      5-min Rain = 0
KTH1 142255Z 03009KT 12/M01 A3035 RMK A01 T01181007  RH  042%=      5-min Rain = 0
KTH1 142256Z 03007KT 12/M01 A3035 RMK A01 T01181007  RH  042%=      5-min Rain = 0
KTH1 142257Z 04007KT 12/M01 A3035 RMK A01 T01171006  RH  042%=      5-min Rain = 0
KTH1 142258Z 04008KT 12/M01 A3035 RMK A01 T01171006  RH  042%=      5-min Rain = 0
KTH1 142259Z 03008KT 12/M01 A3035 RMK A01 T01171006  RH  042%=      5-min Rain = 0
KTH1 142300Z 03008KT 12/M01 A3035 RMK A01 T01171006  RH  043%=      5-min Rain = 0
KTH1 142301Z 03009KT 12/M01 A3035 RMK A01 T01161006  RH  043%=      5-min Rain = 0
KTH1 142302Z 03009KT 12/M01 A3035 RMK A01 T01161007  RH  043%=      5-min Rain = 0
KTH1 142303Z 03011KT 12/M01 A3035 RMK A01 T01161006  RH  043%=      5-min Rain = 0
KTH1 142304Z 02008KT 12/M01 A3035 RMK A01 T01151007  RH  043%=      5-min Rain = 0
KTH1 142305Z 02009KT 12/M01 A3035 RMK A01 T01151006  RH  043%=      5-min Rain = 0
KTH1 142306Z 03008KT 12/M01 A3035 RMK A01 T01151006  RH  043%=      5-min Rain = 0
KTH1 142307Z 03007KT 11/M01 A3035 RMK A01 T01141006  RH  043%=      5-min Rain = 0
KTH1 142308Z 02008KT 11/M01 A3035 RMK A01 T01131006  RH  044%=      5-min Rain = 0
KTH1 142309Z 02007KT 11/M01 A3035 RMK A01 T01131006  RH  044%=      5-min Rain = 0
KTH1 142310Z 02007KT 11/M01 A3035 RMK A01 T01131006  RH  044%=      5-min Rain = 0
KTH1 142311Z 03006KT 11/M01 A3035 RMK A01 T01121006  RH  044%=      5-min Rain = 0
KTH1 142312Z 03006KT 11/M01 A3035 RMK A01 T01121006  RH  044%=      5-min Rain = 0
KTH1 142313Z 03005KT 11/M01 A3035 RMK A01 T01121006  RH  044%=      5-min Rain = 0
KTH1 142314Z 03006KT 11/M01 A3035 RMK A01 T01111006  RH  044%=      5-min Rain = 0
KTH1 142315Z 04007KT 11/M01 A3035 RMK A01 T01111006  RH  044%=      5-min Rain = 0
KTH1 142316Z 02007KT 11/M01 A3035 RMK A01 T01111006  RH  044%=      5-min Rain = 0
KTH1 142317Z 02007KT 11/M01 A3035 RMK A01 T01111006  RH  044%=      5-min Rain = 0
KTH1 142318Z 02007KT 11/M01 A3035 RMK A01 T01101006  RH  044%=      5-min Rain = 0
KTH1 142319Z 03007KT 11/M01 A3035 RMK A01 T01101006  RH  045%=      5-min Rain = 0
KTH1 142320Z 03008KT 11/M01 A3035 RMK A01 T01101006  RH  045%=      5-min Rain = 0
KTH1 142321Z 04006KT 11/M01 A3035 RMK A01 T01101006  RH  045%=      5-min Rain = 0
KTH1 142322Z 03007KT 11/M01 A3035 RMK A01 T01091006  RH  045%=      5-min Rain = 0
KTH1 142323Z 03005KT 11/M01 A3035 RMK A01 T01091005  RH  045%=      5-min Rain = 0
KTH1 142324Z 03006KT 11/M01 A3035 RMK A01 T01081006  RH  045%=      5-min Rain = 0
KTH1 142325Z 04005KT 11/M01 A3036 RMK A01 T01081006  RH  045%=      5-min Rain = 0
KTH1 142326Z 03006KT 11/M01 A3036 RMK A01 T01081005  RH  045%=      5-min Rain = 0
KTH1 142327Z 03006KT 11/M01 A3036 RMK A01 T01071006  RH  046%=      5-min Rain = 0
KTH1 142328Z 03006KT 11/M01 A3036 RMK A01 T01061006  RH  046%=      5-min Rain = 0
KTH1 142329Z 03004KT 11/M01 A3036 RMK A01 T01061005  RH  046%=      5-min Rain = 0
KTH1 142330Z 04004KT 11/M01 A3036 RMK A01 T01051006  RH  046%=      5-min Rain = 0
KTH1 142331Z 03005KT 11/M01 A3036 RMK A01 T01051006  RH  046%=      5-min Rain = 0
KTH1 142332Z 04004KT 10/M01 A3036 RMK A01 T01041006  RH  046%=      5-min Rain = 0
KTH1 142333Z 04004KT 10/M01 A3036 RMK A01 T01041005  RH  047%=      5-min Rain = 0
KTH1 142334Z 03004KT 10/M01 A3036 RMK A01 T01031005  RH  047%=      5-min Rain = 0
KTH1 142335Z 03004KT 10/M01 A3036 RMK A01 T01021006  RH  047%=      5-min Rain = 0
KTH1 142336Z 03004KT 10/M01 A3036 RMK A01 T01021005  RH  047%=      5-min Rain = 0
KTH1 142337Z 04004KT 10/M01 A3036 RMK A01 T01021005  RH  047%=      5-min Rain = 0
KTH1 142338Z 04004KT 10/M01 A3036 RMK A01 T01011005  RH  048%=      5-min Rain = 0
KTH1 142339Z 04004KT 10/M01 A3036 RMK A01 T01001006  RH  048%=      5-min Rain = 0
KTH1 142340Z 04004KT 10/M01 A3036 RMK A01 T01001005  RH  048%=      5-min Rain = 0
KTH1 142341Z 04004KT 10/M01 A3036 RMK A01 T00991005  RH  048%=      5-min Rain = 0
KTH1 142342Z 03005KT 10/M01 A3036 RMK A01 T00991005  RH  048%=      5-min Rain = 0
KTH1 142343Z 04003KT 10/M01 A3036 RMK A01 T00991005  RH  048%=      5-min Rain = 0
KTH1 142344Z 03004KT 10/M01 A3036 RMK A01 T00981005  RH  049%=      5-min Rain = 0
KTH1 142345Z 03003KT 10/M01 A3036 RMK A01 T00971005  RH  049%=      5-min Rain = 0
KTH1 142346Z 03004KT 10/M01 A3036 RMK A01 T00971005  RH  049%=      5-min Rain = 0
KTH1 142347Z 03004KT 10/M01 A3036 RMK A01 T00971005  RH  049%=      5-min Rain = 0
KTH1 142348Z 03004KT 10/M01 A3036 RMK A01 T00971005  RH  049%=      5-min Rain = 0
KTH1 142349Z 03004KT 10/M01 A3036 RMK A01 T00961005  RH  049%=      5-min Rain = 0
KTH1 142350Z 03004KT 10/M01 A3036 RMK A01 T00961006  RH  049%=      5-min Rain = 0
KTH1 142351Z 03003KT 10/M01 A3036 RMK A01 T00951006  RH  049%=      5-min Rain = 0
KTH1 142352Z 03004KT 10/M01 A3036 RMK A01 T00961005  RH  049%=      5-min Rain = 0
KTH1 142353Z 02003KT 10/M01 A3036 RMK A01 T00951005  RH  049%=      5-min Rain = 0
KTH1 142354Z 03003KT 10/M01 A3036 RMK A01 T00951005  RH  049%=      5-min Rain = 0
KTH1 142355Z 03003KT 10/M01 A3036 RMK A01 T00951005  RH  049%=      5-min Rain = 0
KTH1 142356Z 02003KT 10/M01 A3036 RMK A01 T00951005  RH  049%=      5-min Rain = 0
KTH1 142357Z 03003KT 10/M01 A3036 RMK A01 T00961005  RH  049%=      5-min Rain = 0
KTH1 142358Z 03003KT 10/M01 A3036 RMK A01 T00951005  RH  049%=      5-min Rain = 0
KTH1 142359Z 03004KT 10/M01 A3036 RMK A01 T00951005  RH  050%=      5-min Rain = 0
KTH1 150000Z 03003KT 10/M01 A3036 RMK A01 T00951005  RH  050%=      5-min Rain = 0
KTH1 150001Z 03003KT 10/M01 A3036 RMK A01 T00951005  RH  050%=      5-min Rain = 0
KTH1 150002Z 03004KT 09/M01 A3036 RMK A01 T00941005  RH  050%=      5-min Rain = 0
KTH1 150003Z 03004KT 09/M01 A3036 RMK A01 T00941005  RH  050%=      5-min Rain = 0
KTH1 150004Z 03004KT 09/M01 A3036 RMK A01 T00941005  RH  050%=      5-min Rain = 0
KTH1 150005Z 03004KT 09/M01 A3036 RMK A01 T00931005  RH  050%=      5-min Rain = 0
KTH1 150006Z 03004KT 09/M01 A3037 RMK A01 T00931005  RH  050%=      5-min Rain = 0
KTH1 150007Z 03004KT 09/M01 A3037 RMK A01 T00931005  RH  050%=      5-min Rain = 0
KTH1 150008Z 03004KT 09/M01 A3037 RMK A01 T00921005  RH  050%=      5-min Rain = 0
KTH1 150009Z 02004KT 09/M01 A3037 RMK A01 T00921005  RH  051%=      5-min Rain = 0
KTH1 150010Z 03004KT 09/M01 A3037 RMK A01 T00921005  RH  051%=      5-min Rain = 0
KTH1 150011Z 02004KT 09/M01 A3037 RMK A01 T00921005  RH  051%=      5-min Rain = 0
KTH1 150012Z 02003KT 09/M01 A3037 RMK A01 T00921005  RH  051%=      5-min Rain = 0
KTH1 150013Z 02003KT 09/M01 A3037 RMK A01 T00911005  RH  051%=      5-min Rain = 0
KTH1 150014Z 02003KT 09/M01 A3037 RMK A01 T00901006  RH  051%=      5-min Rain = 0
KTH1 150015Z 02003KT 09/M01 A3037 RMK A01 T00901005  RH  051%=      5-min Rain = 0
KTH1 150016Z 01003KT 09/M01 A3037 RMK A01 T00901005  RH  051%=      5-min Rain = 0
KTH1 150017Z 00002KT 09/M01 A3037 RMK A01 T00891006  RH  051%=      5-min Rain = 0
KTH1 150018Z 35002KT 09/M01 A3037 RMK A01 T00881005  RH  052%=      5-min Rain = 0
KTH1 150019Z 35002KT 09/M00 A3037 RMK A01 T00881001  RH  054%=      5-min Rain = 0
KTH1 150020Z 35002KT 09/00 A3037 RMK A01 T00870000  RH  054%=      5-min Rain = 0
KTH1 150021Z 35002KT 09/00 A3037 RMK A01 T00860002  RH  055%=      5-min Rain = 0
KTH1 150022Z 01002KT 09/01 A3037 RMK A01 T00860012  RH  060%=      5-min Rain = 0
KTH1 150023Z 01002KT 09/01 A3037 RMK A01 T00850012  RH  060%=      5-min Rain = 0
KTH1 150024Z 01002KT 08/01 A3037 RMK A01 T00840014  RH  062%=      5-min Rain = 0
KTH1 150025Z 01002KT 08/01 A3037 RMK A01 T00830013  RH  061%=      5-min Rain = 0
KTH1 150026Z 01002KT 08/02 A3037 RMK A01 T00820020  RH  065%=      5-min Rain = 0
KTH1 150027Z 01002KT 08/02 A3037 RMK A01 T00820017  RH  064%=      5-min Rain = 0
KTH1 150028Z 01002KT 08/02 A3037 RMK A01 T00810017  RH  064%=      5-min Rain = 0
KTH1 150029Z 02002KT 08/01 A3037 RMK A01 T00800011  RH  062%=      5-min Rain = 0
KTH1 150030Z 01002KT 08/01 A3037 RMK A01 T00800006  RH  059%=      5-min Rain = 0
KTH1 150031Z 00002KT 08/00 A3037 RMK A01 T00790001  RH  058%=      5-min Rain = 0
KTH1 150032Z 00002KT 08/00 A3037 RMK A01 T00790001  RH  058%=      5-min Rain = 0
KTH1 150033Z 00002KT 08/01 A3037 RMK A01 T00790006  RH  060%=      5-min Rain = 0
KTH1 150034Z 00002KT 08/01 A3037 RMK A01 T00790011  RH  062%=      5-min Rain = 0
KTH1 150035Z 36002KT 08/01 A3038 RMK A01 T00790012  RH  063%=      5-min Rain = 0
KTH1 150036Z 00002KT 08/01 A3038 RMK A01 T00790013  RH  063%=      5-min Rain = 0
KTH1 150037Z 00003KT 08/01 A3038 RMK A01 T00780012  RH  063%=      5-min Rain = 0
KTH1 150038Z 35003KT 08/01 A3038 RMK A01 T00780008  RH  061%=      5-min Rain = 0
KTH1 150039Z 35003KT 08/01 A3038 RMK A01 T00780005  RH  060%=      5-min Rain = 0
KTH1 150040Z 35003KT 08/01 A3038 RMK A01 T00780006  RH  061%=      5-min Rain = 0
KTH1 150041Z 35003KT 08/01 A3038 RMK A01 T00780011  RH  063%=      5-min Rain = 0
KTH1 150042Z 35003KT 08/01 A3038 RMK A01 T00780013  RH  063%=      5-min Rain = 0
KTH1 150043Z 34002KT 08/02 A3038 RMK A01 T00780017  RH  065%=      5-min Rain = 0
KTH1 150044Z 34002KT 08/02 A3038 RMK A01 T00770022  RH  068%=      5-min Rain = 0
KTH1 150045Z 34002KT 08/03 A3038 RMK A01 T00770028  RH  071%=      5-min Rain = 0
KTH1 150046Z 35002KT 08/03 A3038 RMK A01 T00760033  RH  074%=      5-min Rain = 0
KTH1 150047Z 34002KT 08/03 A3038 RMK A01 T00750032  RH  074%=      5-min Rain = 0
KTH1 150048Z 34002KT 07/03 A3038 RMK A01 T00730032  RH  075%=      5-min Rain = 0
KTH1 150049Z 34002KT 07/03 A3038 RMK A01 T00720031  RH  075%=      5-min Rain = 0
KTH1 150050Z 33002KT 07/03 A3038 RMK A01 T00720031  RH  075%=      5-min Rain = 0
KTH1 150051Z 33002KT 07/03 A3038 RMK A01 T00710029  RH  074%=      5-min Rain = 0
KTH1 150052Z 34002KT 07/03 A3038 RMK A01 T00710028  RH  074%=      5-min Rain = 0
KTH1 150053Z 34002KT 07/03 A3038 RMK A01 T00700027  RH  074%=      5-min Rain = 0
KTH1 150054Z 33002KT 07/02 A3038 RMK A01 T00700024  RH  073%=      5-min Rain = 0
KTH1 150055Z 33002KT 07/02 A3038 RMK A01 T00700023  RH  072%=      5-min Rain = 0
KTH1 150056Z 34002KT 07/02 A3038 RMK A01 T00690022  RH  072%=      5-min Rain = 0
KTH1 150057Z 32002KT 07/02 A3039 RMK A01 T00690022  RH  072%=      5-min Rain = 0
KTH1 150058Z 32001KT 07/02 A3039 RMK A01 T00690021  RH  072%=      5-min Rain = 0
KTH1 150059Z 34002KT 07/02 A3039 RMK A01 T00680021  RH  072%=      5-min Rain = 0
KTH1 150100Z 33001KT 07/02 A3039 RMK A01 T00680018  RH  070%=      5-min Rain = 0
KTH1 150101Z 34002KT 07/02 A3039 RMK A01 T00670015  RH  069%=      5-min Rain = 0
KTH1 150102Z 34002KT 07/01 A3039 RMK A01 T00670014  RH  069%=      5-min Rain = 0
KTH1 150103Z 34002KT 07/01 A3039 RMK A01 T00670013  RH  069%=      5-min Rain = 0
KTH1 150104Z 34002KT 07/01 A3039 RMK A01 T00670013  RH  068%=      5-min Rain = 0
KTH1 150105Z 33003KT 07/01 A3039 RMK A01 T00670012  RH  068%=      5-min Rain = 0
KTH1 150106Z 32002KT 07/01 A3039 RMK A01 T00680014  RH  069%=      5-min Rain = 0
KTH1 150107Z 32002KT 07/02 A3039 RMK A01 T00670015  RH  069%=      5-min Rain = 0
KTH1 150108Z 33002KT 07/02 A3039 RMK A01 T00680016  RH  070%=      5-min Rain = 0
KTH1 150109Z 33002KT 07/02 A3039 RMK A01 T00670015  RH  070%=      5-min Rain = 0
KTH1 150110Z 34002KT 07/02 A3039 RMK A01 T00670016  RH  070%=      5-min Rain = 0
KTH1 150111Z 34002KT 07/02 A3039 RMK A01 T00670016  RH  070%=      5-min Rain = 0
KTH1 150112Z 35002KT 07/02 A3039 RMK A01 T00670015  RH  069%=      5-min Rain = 0
KTH1 150113Z 36002KT 07/01 A3039 RMK A01 T00670014  RH  069%=      5-min Rain = 0
KTH1 150114Z 35003KT 07/01 A3039 RMK A01 T00670012  RH  068%=      5-min Rain = 0
KTH1 150115Z 36002KT 07/01 A3039 RMK A01 T00680012  RH  068%=      5-min Rain = 0
KTH1 150116Z 00003KT 07/01 A3039 RMK A01 T00680014  RH  068%=      5-min Rain = 0
KTH1 150117Z 00003KT 07/01 A3039 RMK A01 T00680013  RH  068%=      5-min Rain = 0
KTH1 150118Z 01003KT 07/02 A3039 RMK A01 T00680015  RH  069%=      5-min Rain = 0
KTH1 150119Z 00003KT 07/01 A3039 RMK A01 T00690014  RH  068%=      5-min Rain = 0
KTH1 150120Z 35003KT 07/02 A3039 RMK A01 T00690015  RH  068%=      5-min Rain = 0
KTH1 150121Z 35002KT 07/02 A3039 RMK A01 T00690019  RH  070%=      5-min Rain = 0
KTH1 150122Z 35003KT 07/02 A3039 RMK A01 T00690022  RH  072%=      5-min Rain = 0
KTH1 150123Z 34003KT 07/02 A3039 RMK A01 T00690023  RH  073%=      5-min Rain = 0
KTH1 150124Z 34002KT 07/02 A3039 RMK A01 T00680024  RH  074%=      5-min Rain = 0
KTH1 150125Z 34002KT 07/03 A3039 RMK A01 T00670025  RH  075%=      5-min Rain = 0
KTH1 150126Z 33002KT 07/03 A3039 RMK A01 T00660026  RH  075%=      5-min Rain = 0
KTH1 150127Z 33002KT 07/03 A3039 RMK A01 T00650025  RH  075%=      5-min Rain = 0
KTH1 150128Z 33002KT 06/02 A3039 RMK A01 T00630023  RH  075%=      5-min Rain = 0
KTH1 150129Z 34002KT 06/02 A3039 RMK A01 T00620022  RH  075%=      5-min Rain = 0
KTH1 150130Z 32002KT 06/02 A3039 RMK A01 T00620020  RH  075%=      5-min Rain = 0
KTH1 150131Z 35001KT 06/02 A3039 RMK A01 T00610020  RH  075%=      5-min Rain = 0
KTH1 150132Z 35002KT 06/02 A3039 RMK A01 T00610020  RH  075%=      5-min Rain = 0
KTH1 150133Z 33002KT 06/02 A3039 RMK A01 T00610019  RH  074%=      5-min Rain = 0
KTH1 150134Z 33002KT 06/02 A3039 RMK A01 T00610018  RH  074%=      5-min Rain = 0
KTH1 150135Z 33002KT 06/02 A3039 RMK A01 T00610018  RH  074%=      5-min Rain = 0
KTH1 150136Z 33002KT 06/02 A3039 RMK A01 T00610018  RH  074%=      5-min Rain = 0
KTH1 150137Z 32002KT 06/02 A3039 RMK A01 T00610018  RH  074%=      5-min Rain = 0
KTH1 150138Z 31002KT 06/02 A3039 RMK A01 T00610018  RH  074%=      5-min Rain = 0
KTH1 150139Z 29002KT 06/02 A3039 RMK A01 T00610020  RH  075%=      5-min Rain = 0
KTH1 150140Z 28002KT 06/02 A3039 RMK A01 T00600019  RH  075%=      5-min Rain = 0
KTH1 150141Z 29002KT 06/02 A304 RMK A01 T00590020  RH  076%=      5-min Rain = 0
KTH1 150142Z 28002KT 06/02 A304 RMK A01 T00580019  RH  076%=      5-min Rain = 0
KTH1 150143Z 30002KT 06/02 A304 RMK A01 T00570018  RH  076%=      5-min Rain = 0
KTH1 150144Z 31002KT 06/02 A304 RMK A01 T00560015  RH  075%=      5-min Rain = 0
KTH1 150145Z 32002KT 06/01 A304 RMK A01 T00560014  RH  074%=      5-min Rain = 0
KTH1 150146Z 33002KT 06/01 A304 RMK A01 T00550011  RH  073%=      5-min Rain = 0
KTH1 150147Z 34002KT 06/01 A304 RMK A01 T00560008  RH  071%=      5-min Rain = 0
KTH1 150148Z 35002KT 06/01 A304 RMK A01 T00570008  RH  071%=      5-min Rain = 0
KTH1 150149Z 36002KT 06/01 A304 RMK A01 T00570007  RH  070%=      5-min Rain = 0
KTH1 150150Z 36002KT 06/01 A304 RMK A01 T00570005  RH  070%=      5-min Rain = 0
KTH1 150151Z 35002KT 06/01 A304 RMK A01 T00570005  RH  069%=      5-min Rain = 0
KTH1 150152Z 35002KT 06/01 A304 RMK A01 T00570005  RH  069%=      5-min Rain = 0
KTH1 150153Z 33002KT 06/01 A304 RMK A01 T00570005  RH  069%=      5-min Rain = 0
KTH1 150154Z 31002KT 06/01 A304 RMK A01 T00570005  RH  069%=      5-min Rain = 0
KTH1 150155Z 29002KT 06/01 A304 RMK A01 T00570011  RH  072%=      5-min Rain = 0
KTH1 150156Z 27002KT 06/01 A304 RMK A01 T00560014  RH  074%=      5-min Rain = 0
KTH1 150157Z 28002KT 06/02 A304 RMK A01 T00550017  RH  076%=      5-min Rain = 0
KTH1 150158Z 28002KT 05/02 A304 RMK A01 T00530017  RH  077%=      5-min Rain = 0
KTH1 150159Z 28002KT 05/02 A304 RMK A01 T00520015  RH  077%=      5-min Rain = 0
KTH1 150200Z 29002KT 05/01 A304 RMK A01 T00500013  RH  077%=      5-min Rain = 0
KTH1 150201Z 29002KT 05/01 A304 RMK A01 T00500011  RH  076%=      5-min Rain = 0
KTH1 150202Z 30002KT 05/01 A304 RMK A01 T00480011  RH  077%=      5-min Rain = 0
KTH1 150203Z 31002KT 05/01 A304 RMK A01 T00480011  RH  077%=      5-min Rain = 0
KTH1 150204Z 30002KT 05/01 A304 RMK A01 T00480011  RH  077%=      5-min Rain = 0
KTH1 150205Z 32002KT 05/01 A304 RMK A01 T00480011  RH  077%=      5-min Rain = 0
KTH1 150206Z 32002KT 05/01 A304 RMK A01 T00480011  RH  077%=      5-min Rain = 0
KTH1 150207Z 32002KT 05/01 A304 RMK A01 T00480011  RH  077%=      5-min Rain = 0
KTH1 150208Z 33002KT 05/01 A304 RMK A01 T00480011  RH  077%=      5-min Rain = 0
KTH1 150209Z 33002KT 05/01 A304 RMK A01 T00470011  RH  077%=      5-min Rain = 0
KTH1 150210Z 33002KT 05/01 A304 RMK A01 T00470011  RH  077%=      5-min Rain = 0
KTH1 150211Z 32002KT 05/01 A304 RMK A01 T00460012  RH  079%=      5-min Rain = 0
KTH1 150212Z 33002KT 05/01 A304 RMK A01 T00460012  RH  079%=      5-min Rain = 0
KTH1 150213Z 33002KT 05/01 A304 RMK A01 T00450012  RH  079%=      5-min Rain = 0
KTH1 150214Z 33002KT 05/01 A304 RMK A01 T00450012  RH  079%=      5-min Rain = 0
KTH1 150215Z 33002KT 04/01 A304 RMK A01 T00440011  RH  079%=      5-min Rain = 0
KTH1 150216Z 34002KT 04/01 A304 RMK A01 T00440011  RH  079%=      5-min Rain = 0
KTH1 150217Z 33002KT 04/01 A304 RMK A01 T00440011  RH  079%=      5-min Rain = 0
KTH1 150218Z 34002KT 04/01 A304 RMK A01 T00430012  RH  080%=      5-min Rain = 0
KTH1 150219Z 34002KT 04/01 A304 RMK A01 T00440012  RH  080%=      5-min Rain = 0
KTH1 150220Z 33002KT 04/01 A304 RMK A01 T00440012  RH  080%=      5-min Rain = 0
KTH1 150221Z 34002KT 04/01 A3041 RMK A01 T00430012  RH  080%=      5-min Rain = 0
KTH1 150222Z 33002KT 04/01 A3041 RMK A01 T00430011  RH  079%=      5-min Rain = 0
KTH1 150223Z 33002KT 04/01 A3041 RMK A01 T00420009  RH  079%=      5-min Rain = 0
KTH1 150224Z 32002KT 04/01 A3041 RMK A01 T00420007  RH  078%=      5-min Rain = 0
KTH1 150225Z 31002KT 04/01 A3041 RMK A01 T00420007  RH  078%=      5-min Rain = 0
KTH1 150226Z 31002KT 04/01 A3041 RMK A01 T00410008  RH  079%=      5-min Rain = 0
KTH1 150227Z 30002KT 04/01 A3041 RMK A01 T00410008  RH  079%=      5-min Rain = 0
KTH1 150228Z 30002KT 04/01 A3041 RMK A01 T00400007  RH  079%=      5-min Rain = 0
KTH1 150229Z 30002KT 04/01 A3041 RMK A01 T00400007  RH  079%=      5-min Rain = 0
KTH1 150230Z 30002KT 04/01 A3041 RMK A01 T00390007  RH  080%=      5-min Rain = 0
KTH1 150231Z 30002KT 04/01 A3041 RMK A01 T00380007  RH  080%=      5-min Rain = 0
KTH1 150232Z 29002KT 04/01 A3041 RMK A01 T00380008  RH  081%=      5-min Rain = 0
KTH1 150233Z 31002KT 04/01 A3041 RMK A01 T00370009  RH  082%=      5-min Rain = 0
KTH1 150234Z 31002KT 04/01 A3041 RMK A01 T00370010  RH  083%=      5-min Rain = 0
KTH1 150235Z 32002KT 04/01 A3041 RMK A01 T00360008  RH  082%=      5-min Rain = 0
KTH1 150236Z 33002KT 04/01 A3041 RMK A01 T00360006  RH  081%=      5-min Rain = 0
KTH1 150237Z 33002KT 04/01 A3041 RMK A01 T00360006  RH  080%=      5-min Rain = 0
KTH1 150238Z 32002KT 04/01 A3041 RMK A01 T00360005  RH  080%=      5-min Rain = 0
KTH1 150239Z 32002KT 04/01 A3041 RMK A01 T00360006  RH  081%=      5-min Rain = 0
KTH1 150240Z 33002KT 04/01 A3041 RMK A01 T00360007  RH  082%=      5-min Rain = 0
KTH1 150241Z 31002KT 04/01 A3041 RMK A01 T00360007  RH  082%=      5-min Rain = 0
KTH1 150242Z 30002KT 04/01 A3041 RMK A01 T00350007  RH  082%=      5-min Rain = 0
KTH1 150243Z 29002KT 04/01 A3041 RMK A01 T00360008  RH  082%=      5-min Rain = 0
KTH1 150244Z 29002KT 04/01 A3041 RMK A01 T00350008  RH  083%=      5-min Rain = 0
KTH1 150245Z 28003KT 04/01 A3042 RMK A01 T00350009  RH  083%=      5-min Rain = 0
KTH1 150246Z 27003KT 03/01 A3042 RMK A01 T00340008  RH  083%=      5-min Rain = 0
KTH1 150247Z 27003KT 03/01 A3042 RMK A01 T00320006  RH  083%=      5-min Rain = 0
KTH1 150248Z 27003KT 03/00 A3042 RMK A01 T00310004  RH  083%=      5-min Rain = 0
KTH1 150249Z 27003KT 03/00 A3042 RMK A01 T00290001  RH  082%=      5-min Rain = 0
KTH1 150250Z 27003KT 03/00 A3042 RMK A01 T002800-0  RH  081%=      5-min Rain = 0
KTH1 150251Z 28003KT 03/00 A3042 RMK A01 T00280000  RH  082%=      5-min Rain = 0
KTH1 150252Z 28003KT 03/00 A3042 RMK A01 T00280003  RH  084%=      5-min Rain = 0
KTH1 150253Z 28003KT 03/00 A3042 RMK A01 T00280004  RH  084%=      5-min Rain = 0
KTH1 150254Z 29003KT 03/01 A3042 RMK A01 T00280005  RH  085%=      5-min Rain = 0
KTH1 150255Z 29003KT 03/01 A3042 RMK A01 T00280005  RH  085%=      5-min Rain = 0
KTH1 150256Z 29003KT 03/01 A3042 RMK A01 T00280005  RH  085%=      5-min Rain = 0
KTH1 150257Z 29003KT 03/01 A3042 RMK A01 T00280005  RH  085%=      5-min Rain = 0
KTH1 150258Z 29003KT 03/01 A3042 RMK A01 T00280005  RH  085%=      5-min Rain = 0
KTH1 150259Z 29003KT 03/01 A3042 RMK A01 T00280006  RH  085%=      5-min Rain = 0
KTH1 150300Z 30002KT 03/01 A3042 RMK A01 T00280006  RH  085%=      5-min Rain = 0
KTH1 150301Z 29002KT 03/01 A3042 RMK A01 T00280006  RH  085%=      5-min Rain = 0
KTH1 150302Z 30002KT 03/01 A3042 RMK A01 T00280006  RH  085%=      5-min Rain = 0
KTH1 150303Z 29002KT 03/01 A3042 RMK A01 T00280005  RH  085%=      5-min Rain = 0
KTH1 150304Z 28002KT 03/01 A3042 RMK A01 T00280005  RH  085%=      5-min Rain = 0
KTH1 150305Z 28002KT 03/01 A3042 RMK A01 T00280005  RH  085%=      5-min Rain = 0
KTH1 150306Z 27002KT 03/00 A3042 RMK A01 T00280004  RH  084%=      5-min Rain = 0
KTH1 150307Z 26003KT 03/00 A3042 RMK A01 T00270002  RH  084%=      5-min Rain = 0
KTH1 150308Z 26003KT 03/00 A3042 RMK A01 T00270002  RH  084%=      5-min Rain = 0
KTH1 150309Z 25004KT 03/00 A3042 RMK A01 T00270003  RH  084%=      5-min Rain = 0
KTH1 150310Z 25005KT 03/00 A3042 RMK A01 T00260002  RH  084%=      5-min Rain = 0
KTH1 150311Z 25005KT 02/00 A3042 RMK A01 T00240001  RH  084%=      5-min Rain = 0
KTH1 150312Z 25005KT 02/00 A3042 RMK A01 T00240002  RH  086%=      5-min Rain = 0
KTH1 150313Z 25005KT 02/00 A3042 RMK A01 T00240002  RH  086%=      5-min Rain = 0
KTH1 150314Z 25005KT 02/00 A3042 RMK A01 T00240002  RH  086%=      5-min Rain = 0
KTH1 150315Z 25005KT 02/00 A3042 RMK A01 T00240001  RH  085%=      5-min Rain = 0
KTH1 150316Z 25004KT 02/00 A3042 RMK A01 T00240002  RH  085%=      5-min Rain = 0
KTH1 150317Z 25005KT 02/00 A3042 RMK A01 T00240002  RH  086%=      5-min Rain = 0
KTH1 150318Z 25005KT 02/00 A3042 RMK A01 T00240002  RH  085%=      5-min Rain = 0
KTH1 150319Z 25005KT 02/00 A3042 RMK A01 T00240001  RH  085%=      5-min Rain = 0
KTH1 150320Z 26004KT 02/00 A3042 RMK A01 T00240001  RH  085%=      5-min Rain = 0
KTH1 150321Z 27003KT 02/00 A3042 RMK A01 T00240002  RH  086%=      5-min Rain = 0
KTH1 150322Z 27003KT 02/00 A3042 RMK A01 T00240001  RH  085%=      5-min Rain = 0
KTH1 150323Z 27003KT 03/00 A3042 RMK A01 T00250002  RH  085%=      5-min Rain = 0
KTH1 150324Z 28003KT 03/00 A3042 RMK A01 T00260001  RH  083%=      5-min Rain = 0
KTH1 150325Z 28003KT 03/00 A3042 RMK A01 T002700-0  RH  082%=      5-min Rain = 0
KTH1 150326Z 28002KT 03/00 A3042 RMK A01 T00290000  RH  081%=      5-min Rain = 0
KTH1 150327Z 28002KT 03/00 A3042 RMK A01 T00290001  RH  081%=      5-min Rain = 0
KTH1 150328Z 29002KT 03/00 A3042 RMK A01 T00290002  RH  082%=      5-min Rain = 0
KTH1 150329Z 29002KT 03/00 A3042 RMK A01 T00300001  RH  081%=      5-min Rain = 0
KTH1 150330Z 29002KT 03/00 A3042 RMK A01 T00310001  RH  081%=      5-min Rain = 0
KTH1 150331Z 29002KT 03/00 A3042 RMK A01 T00310002  RH  081%=      5-min Rain = 0
KTH1 150332Z 29002KT 03/01 A3042 RMK A01 T00320005  RH  082%=      5-min Rain = 0
KTH1 150333Z 28003KT 03/01 A3042 RMK A01 T00320006  RH  083%=      5-min Rain = 0
KTH1 150334Z 28003KT 03/01 A3042 RMK A01 T00320006  RH  083%=      5-min Rain = 0
KTH1 150335Z 27003KT 03/01 A3042 RMK A01 T00310007  RH  084%=      5-min Rain = 0
KTH1 150336Z 27003KT 03/01 A3042 RMK A01 T00300009  RH  086%=      5-min Rain = 0
KTH1 150337Z 27003KT 03/01 A3042 RMK A01 T00300009  RH  086%=      5-min Rain = 0
KTH1 150338Z 27003KT 03/01 A3042 RMK A01 T00290009  RH  087%=      5-min Rain = 0
KTH1 150339Z 27003KT 03/01 A3042 RMK A01 T00280008  RH  087%=      5-min Rain = 0
KTH1 150340Z 27003KT 03/01 A3042 RMK A01 T00280007  RH  086%=      5-min Rain = 0
KTH1 150341Z 27003KT 03/01 A3042 RMK A01 T00270006  RH  086%=      5-min Rain = 0
KTH1 150342Z 28003KT 03/01 A3042 RMK A01 T00260005  RH  086%=      5-min Rain = 0
KTH1 150343Z 28003KT 03/00 A3042 RMK A01 T00260004  RH  086%=      5-min Rain = 0
KTH1 150344Z 28003KT 03/00 A3042 RMK A01 T00250004  RH  086%=      5-min Rain = 0
KTH1 150345Z 28003KT 03/00 A3042 RMK A01 T00250004  RH  086%=      5-min Rain = 0
KTH1 150346Z 28003KT 03/01 A3042 RMK A01 T00250005  RH  087%=      5-min Rain = 0
KTH1 150347Z 29003KT 03/01 A3042 RMK A01 T00250005  RH  087%=      5-min Rain = 0
KTH1 150348Z 30003KT 03/01 A3042 RMK A01 T00250006  RH  088%=      5-min Rain = 0
KTH1 150349Z 30002KT 03/01 A3042 RMK A01 T00250005  RH  087%=      5-min Rain = 0
KTH1 150350Z 31002KT 03/00 A3042 RMK A01 T00250004  RH  087%=      5-min Rain = 0
KTH1 150351Z 31002KT 02/01 A3042 RMK A01 T00240005  RH  087%=      5-min Rain = 0
KTH1 150352Z 30003KT 02/01 A3042 RMK A01 T00240005  RH  087%=      5-min Rain = 0
KTH1 150353Z 30002KT 02/01 A3042 RMK A01 T00240005  RH  087%=      5-min Rain = 0
KTH1 150354Z 30003KT 02/00 A3042 RMK A01 T00230004  RH  088%=      5-min Rain = 0
KTH1 150355Z 29003KT 02/01 A3042 RMK A01 T00230005  RH  088%=      5-min Rain = 0
KTH1 150356Z 29003KT 02/00 A3042 RMK A01 T00220003  RH  087%=      5-min Rain = 0
KTH1 150357Z 29002KT 02/00 A3042 RMK A01 T00220003  RH  087%=      5-min Rain = 0
KTH1 150358Z 28003KT 02/00 A3042 RMK A01 T00220004  RH  088%=      5-min Rain = 0
KTH1 150359Z 27003KT 02/00 A3042 RMK A01 T00220003  RH  088%=      5-min Rain = 0
KTH1 150400Z 27003KT 02/00 A3042 RMK A01 T00210003  RH  088%=      5-min Rain = 0
KTH1 150401Z 26003KT 02/00 A3042 RMK A01 T00210003  RH  088%=      5-min Rain = 0
KTH1 150402Z 26004KT 02/00 A3043 RMK A01 T00210003  RH  088%=      5-min Rain = 0
KTH1 150403Z 26004KT 02/00 A3043 RMK A01 T00200003  RH  088%=      5-min Rain = 0
KTH1 150404Z 26004KT 02/00 A3043 RMK A01 T00200003  RH  089%=      5-min Rain = 0
KTH1 150405Z 26004KT 02/00 A3043 RMK A01 T00190003  RH  089%=      5-min Rain = 0
KTH1 150406Z 26004KT 02/00 A3043 RMK A01 T00190003  RH  089%=      5-min Rain = 0
KTH1 150407Z 26004KT 02/00 A3043 RMK A01 T00190003  RH  089%=      5-min Rain = 0
KTH1 150408Z 26004KT 02/00 A3043 RMK A01 T00190003  RH  089%=      5-min Rain = 0
KTH1 150409Z 27004KT 02/00 A3043 RMK A01 T00190003  RH  089%=      5-min Rain = 0
KTH1 150410Z 27004KT 02/00 A3043 RMK A01 T00190004  RH  090%=      5-min Rain = 0
KTH1 150411Z 27004KT 02/01 A3043 RMK A01 T00200005  RH  090%=      5-min Rain = 0
KTH1 150412Z 27003KT 02/01 A3043 RMK A01 T00200005  RH  090%=      5-min Rain = 0
KTH1 150413Z 26004KT 02/01 A3043 RMK A01 T00200005  RH  090%=      5-min Rain = 0
KTH1 150414Z 27004KT 02/00 A3043 RMK A01 T00200004  RH  089%=      5-min Rain = 0
KTH1 150415Z 27004KT 02/00 A3043 RMK A01 T00200004  RH  090%=      5-min Rain = 0
KTH1 150416Z 26004KT 02/01 A3043 RMK A01 T00200005  RH  090%=      5-min Rain = 0
KTH1 150417Z 26003KT 02/01 A3043 RMK A01 T00210007  RH  090%=      5-min Rain = 0
KTH1 150418Z 26004KT 02/01 A3043 RMK A01 T00210007  RH  090%=      5-min Rain = 0
KTH1 150419Z 27003KT 02/01 A3043 RMK A01 T00210007  RH  091%=      5-min Rain = 0
KTH1 150420Z 27003KT 02/01 A3043 RMK A01 T00210008  RH  091%=      5-min Rain = 0
KTH1 150421Z 27003KT 02/01 A3043 RMK A01 T00210008  RH  091%=      5-min Rain = 0
KTH1 150422Z 27003KT 02/01 A3043 RMK A01 T00210009  RH  091%=      5-min Rain = 0
KTH1 150423Z 27003KT 02/01 A3043 RMK A01 T00210008  RH  091%=      5-min Rain = 0
KTH1 150424Z 26003KT 02/01 A3042 RMK A01 T00210007  RH  091%=      5-min Rain = 0
KTH1 150425Z 26003KT 02/01 A3042 RMK A01 T00200006  RH  090%=      5-min Rain = 0
KTH1 150426Z 26003KT 02/01 A3042 RMK A01 T00200005  RH  090%=      5-min Rain = 0
KTH1 150427Z 25003KT 02/00 A3042 RMK A01 T00200004  RH  090%=      5-min Rain = 0
KTH1 150428Z 25003KT 02/00 A3042 RMK A01 T00200003  RH  089%=      5-min Rain = 0
KTH1 150429Z 25003KT 02/00 A3042 RMK A01 T00190003  RH  089%=      5-min Rain = 0
KTH1 150430Z 25004KT 02/00 A3042 RMK A01 T00200004  RH  090%=      5-min Rain = 0
KTH1 150431Z 26003KT 02/01 A3042 RMK A01 T00200005  RH  090%=      5-min Rain = 0
KTH1 150432Z 25003KT 02/01 A3042 RMK A01 T00200006  RH  090%=      5-min Rain = 0
KTH1 150433Z 26003KT 02/01 A3042 RMK A01 T00200006  RH  091%=      5-min Rain = 0
KTH1 150434Z 26003KT 02/01 A3042 RMK A01 T00190006  RH  091%=      5-min Rain = 0
KTH1 150435Z 26003KT 02/01 A3042 RMK A01 T00190007  RH  092%=      5-min Rain = 0
KTH1 150436Z 27003KT 02/01 A3042 RMK A01 T00190007  RH  092%=      5-min Rain = 0
KTH1 150437Z 27003KT 02/01 A3042 RMK A01 T00190006  RH  091%=      5-min Rain = 0
KTH1 150438Z 27003KT 02/01 A3042 RMK A01 T00190006  RH  092%=      5-min Rain = 0
KTH1 150439Z 27003KT 02/01 A3042 RMK A01 T00190006  RH  092%=      5-min Rain = 0
KTH1 150440Z 28003KT 02/01 A3042 RMK A01 T00190006  RH  092%=      5-min Rain = 0
KTH1 150441Z 29003KT 02/01 A3042 RMK A01 T00190007  RH  092%=      5-min Rain = 0
KTH1 150442Z 30003KT 02/01 A3042 RMK A01 T00190008  RH  092%=      5-min Rain = 0
KTH1 150443Z 30003KT 02/01 A3042 RMK A01 T00190008  RH  092%=      5-min Rain = 0
KTH1 150444Z 30003KT 02/01 A3042 RMK A01 T00200009  RH  092%=      5-min Rain = 0
KTH1 150445Z 30003KT 02/01 A3042 RMK A01 T00210009  RH  092%=      5-min Rain = 0
KTH1 150446Z 30003KT 02/01 A3042 RMK A01 T00210010  RH  092%=      5-min Rain = 0
KTH1 150447Z 29003KT 02/01 A3042 RMK A01 T00220010  RH  092%=      5-min Rain = 0
KTH1 150448Z 28003KT 02/01 A3042 RMK A01 T00210009  RH  091%=      5-min Rain = 0
KTH1 150449Z 28002KT 02/01 A3042 RMK A01 T00210009  RH  091%=      5-min Rain = 0
KTH1 150450Z 28003KT 02/01 A3042 RMK A01 T00210008  RH  091%=      5-min Rain = 0
KTH1 150451Z 28003KT 02/01 A3043 RMK A01 T00210008  RH  091%=      5-min Rain = 0
KTH1 150452Z 27002KT 02/01 A3043 RMK A01 T00200007  RH  091%=      5-min Rain = 0
KTH1 150453Z 27002KT 02/01 A3043 RMK A01 T00190005  RH  091%=      5-min Rain = 0
KTH1 150454Z 26003KT 02/01 A3043 RMK A01 T00180005  RH  091%=      5-min Rain = 0
KTH1 150455Z 26003KT 02/00 A3043 RMK A01 T00180004  RH  090%=      5-min Rain = 0
KTH1 150456Z 26003KT 02/00 A3043 RMK A01 T00180004  RH  090%=      5-min Rain = 0
KTH1 150457Z 26003KT 02/00 A3043 RMK A01 T00180003  RH  090%=      5-min Rain = 0
KTH1 150458Z 27003KT 02/00 A3043 RMK A01 T00170003  RH  090%=      5-min Rain = 0
KTH1 150459Z 27003KT 02/00 A3043 RMK A01 T00170003  RH  090%=      5-min Rain = 0
KTH1 150500Z 27002KT 02/00 A3043 RMK A01 T00170003  RH  091%=      5-min Rain = 0
KTH1 150501Z 28002KT 02/00 A3043 RMK A01 T00160003  RH  091%=      5-min Rain = 0
KTH1 150502Z 29002KT 02/00 A3043 RMK A01 T00170003  RH  090%=      5-min Rain = 0
KTH1 150503Z 28002KT 02/00 A3043 RMK A01 T00170003  RH  090%=      5-min Rain = 0
KTH1 150504Z 29002KT 02/00 A3043 RMK A01 T00180003  RH  090%=      5-min Rain = 0
KTH1 150505Z 29002KT 02/00 A3043 RMK A01 T00180004  RH  090%=      5-min Rain = 0
KTH1 150506Z 29002KT 02/00 A3043 RMK A01 T00180004  RH  090%=      5-min Rain = 0
KTH1 150507Z 29002KT 02/00 A3043 RMK A01 T00180003  RH  090%=      5-min Rain = 0
KTH1 150508Z 28002KT 02/00 A3043 RMK A01 T00170003  RH  091%=      5-min Rain = 0
KTH1 150509Z 28002KT 02/00 A3043 RMK A01 T00170003  RH  091%=      5-min Rain = 0
KTH1 150510Z 28002KT 02/00 A3043 RMK A01 T00160003  RH  091%=      5-min Rain = 0
KTH1 150511Z 28002KT 02/00 A3043 RMK A01 T00160004  RH  092%=      5-min Rain = 0
KTH1 150512Z 28002KT 02/01 A3043 RMK A01 T00160005  RH  093%=      5-min Rain = 0
KTH1 150513Z 28002KT 02/01 A3043 RMK A01 T00170006  RH  093%=      5-min Rain = 0
KTH1 150514Z 29002KT 02/01 A3043 RMK A01 T00170007  RH  093%=      5-min Rain = 0
KTH1 150515Z 29003KT 02/01 A3043 RMK A01 T00180007  RH  093%=      5-min Rain = 0
KTH1 150516Z 28003KT 02/01 A3043 RMK A01 T00180007  RH  093%=      5-min Rain = 0
KTH1 150517Z 28003KT 02/01 A3043 RMK A01 T00170007  RH  093%=      5-min Rain = 0
KTH1 150518Z 28003KT 02/01 A3043 RMK A01 T00170006  RH  092%=      5-min Rain = 0
KTH1 150519Z 28003KT 02/01 A3043 RMK A01 T00170005  RH  092%=      5-min Rain = 0
KTH1 150520Z 28003KT 02/01 A3043 RMK A01 T00170005  RH  092%=      5-min Rain = 0
KTH1 150521Z 28003KT 02/01 A3043 RMK A01 T00170005  RH  092%=      5-min Rain = 0
KTH1 150522Z 28003KT 02/01 A3043 RMK A01 T00170005  RH  092%=      5-min Rain = 0
KTH1 150523Z 28003KT 02/01 A3043 RMK A01 T00170005  RH  092%=      5-min Rain = 0
KTH1 150524Z 28003KT 02/01 A3043 RMK A01 T00160005  RH  092%=      5-min Rain = 0
KTH1 150525Z 28003KT 02/00 A3043 RMK A01 T00160004  RH  092%=      5-min Rain = 0
KTH1 150526Z 28003KT 02/01 A3043 RMK A01 T00160005  RH  092%=      5-min Rain = 0
KTH1 150527Z 28003KT 02/01 A3043 RMK A01 T00160005  RH  092%=      5-min Rain = 0
KTH1 150528Z 28003KT 02/01 A3043 RMK A01 T00160005  RH  092%=      5-min Rain = 0
KTH1 150529Z 28003KT 02/01 A3043 RMK A01 T00160005  RH  092%=      5-min Rain = 0
KTH1 150530Z 27003KT 02/01 A3043 RMK A01 T00160005  RH  092%=      5-min Rain = 0
KTH1 150531Z 27003KT 02/01 A3043 RMK A01 T00160005  RH  092%=      5-min Rain = 0
KTH1 150532Z 26003KT 02/01 A3043 RMK A01 T00160005  RH  092%=      5-min Rain = 0
KTH1 150533Z 26004KT 02/00 A3043 RMK A01 T00160004  RH  092%=      5-min Rain = 0
KTH1 150534Z 26004KT 02/00 A3043 RMK A01 T00150003  RH  092%=      5-min Rain = 0
KTH1 150535Z 26004KT 02/00 A3043 RMK A01 T00150002  RH  092%=      5-min Rain = 0
KTH1 150536Z 27004KT 01/00 A3043 RMK A01 T00140002  RH  092%=      5-min Rain = 0
KTH1 150537Z 27003KT 01/00 A3043 RMK A01 T00130003  RH  092%=      5-min Rain = 0
KTH1 150538Z 27003KT 01/00 A3043 RMK A01 T00130003  RH  093%=      5-min Rain = 0
KTH1 150539Z 27003KT 01/00 A3043 RMK A01 T00130003  RH  093%=      5-min Rain = 0
KTH1 150540Z 27003KT 01/00 A3043 RMK A01 T00130003  RH  093%=      5-min Rain = 0
KTH1 150541Z 27003KT 01/00 A3043 RMK A01 T00130003  RH  093%=      5-min Rain = 0
KTH1 150542Z 26003KT 01/00 A3043 RMK A01 T00120002  RH  093%=      5-min Rain = 0
KTH1 150543Z 27003KT 01/00 A3043 RMK A01 T00130003  RH  093%=      5-min Rain = 0
KTH1 150544Z 27004KT 01/00 A3043 RMK A01 T00140004  RH  094%=      5-min Rain = 0
KTH1 150545Z 26004KT 01/01 A3043 RMK A01 T00140005  RH  094%=      5-min Rain = 0
KTH1 150546Z 27004KT 01/01 A3043 RMK A01 T00140005  RH  094%=      5-min Rain = 0
KTH1 150547Z 27003KT 01/01 A3043 RMK A01 T00140005  RH  094%=      5-min Rain = 0
KTH1 150548Z 27003KT 01/01 A3043 RMK A01 T00140005  RH  094%=      5-min Rain = 0
KTH1 150549Z 26003KT 01/00 A3043 RMK A01 T00140004  RH  093%=      5-min Rain = 0
KTH1 150550Z 27003KT 02/00 A3043 RMK A01 T00150004  RH  093%=      5-min Rain = 0
KTH1 150551Z 26003KT 02/00 A3043 RMK A01 T00150004  RH  093%=      5-min Rain = 0
KTH1 150552Z 26003KT 02/00 A3043 RMK A01 T00150004  RH  093%=      5-min Rain = 0
KTH1 150553Z 27003KT 02/01 A3043 RMK A01 T00150005  RH  093%=      5-min Rain = 0
KTH1 150554Z 27003KT 02/01 A3043 RMK A01 T00150005  RH  093%=      5-min Rain = 0
KTH1 150555Z 27002KT 02/01 A3043 RMK A01 T00160005  RH  093%=      5-min Rain = 0
KTH1 150556Z 26003KT 02/01 A3043 RMK A01 T00170007  RH  093%=      5-min Rain = 0
KTH1 150557Z 26003KT 02/01 A3043 RMK A01 T00170007  RH  093%=      5-min Rain = 0
KTH1 150558Z 25003KT 02/01 A3043 RMK A01 T00180006  RH  092%=      5-min Rain = 0
KTH1 150559Z 26003KT 02/01 A3043 RMK A01 T00180005  RH  091%=      5-min Rain = 0

Page generated in 0.0762 seconds.